Home Latest Filings Latest Buys Latest Sells Institutions Derivatives Hot Buys Data Screener Email Alerts Insider Charts
UTX - As of  09/21/19, 03:22:40 PM:   1233 Insider Transactions.

Sector: Conglomerates    Industry: Conglomerates
Prev Close:$103.96  Avg Vol(3m): 3,898,520  P/E: 12.10  EPS: 8.53

Email this page to a friend.    Institutional Transactions for UTX

                Buy: Blue    Sell: Red
Non-meaningful transactions (gifts, grants, etc.) are automatically filtered out for quicker actions.
Buy(P) /
Sell(S)
P/S date Filed Date Company Symbol Insider Relationship Share Amt. Unit Price Total Proceeds Shares Owned Return(1m) Details
S 2019-09-06 2019-09-10 16:29:37.0 UNITED TECHNOLOGIES CORP /DE/ UTX HAYES GREGORY director officer (Chairman, President and CEO) 19,542 $133.35 $2,605,860.00 226,569 view
S 2019-09-09 2019-09-10 16:28:28.0 UNITED TECHNOLOGIES CORP /DE/ UTX Bailey Robert J. officer (Corporate VP, Controller) 831 $135.09 $112,260.00 1,169 view
S 2019-09-09 2019-09-10 16:28:21.0 UNITED TECHNOLOGIES CORP /DE/ UTX LEDUC ROBERT F officer (President, Pratt & Whitney) 5,025 $134.06 $673,652.00 86,003 view
S 2019-09-04 2019-09-06 16:31:06.0 UNITED TECHNOLOGIES CORP /DE/ UTX Gill Charles D officer (Executive VP & General Counsel) 8,983 $131.43 $1,180,640.00 76,916 view
S 2019-09-04 2019-09-06 16:31:06.0 UNITED TECHNOLOGIES CORP /DE/ UTX Gill Charles D officer (Executive VP & General Counsel) 8,780 $131.43 $1,153,960.00 85,899 view
S 2019-09-04 2019-09-06 16:31:06.0 UNITED TECHNOLOGIES CORP /DE/ UTX Gill Charles D officer (Executive VP & General Counsel) 8,779 $131.41 $1,153,650.00 94,679 view
S 2019-08-09 2019-08-13 16:32:03.0 UNITED TECHNOLOGIES CORP /DE/ UTX Dumais Michael R officer (EVP, Operations & Strategy) 4,329 $130.98 $567,015.00 34,936 view
S 2019-07-29 2019-07-30 16:32:12.0 UNITED TECHNOLOGIES CORP /DE/ UTX Amato Elizabeth B officer (EVP & Chief HR Officer) 4,298 $135.71 $583,292.00 26,549 view
S 2019-03-15 2019-03-18 16:34:03.0 UNITED TECHNOLOGIES CORP /DE/ UTX Bailey Robert J. officer (Corporate VP, Controller) 1,418 $126.20 $178,952.00 0 view
S 2019-02-28 2019-03-04 08:04:51.0 UNITED TECHNOLOGIES CORP /DE/ UTX Ortberg Robert Kelly officer (CEO, Collins Aerospace Systems) 16,587 $126.59 $2,099,790.00 70,211 view
S 2019-02-28 2019-03-01 16:37:52.0 UNITED TECHNOLOGIES CORP /DE/ UTX Ortberg Robert Kelly officer (CEO, Collins Aerospace Systems) 16,587 $126.59 $2,099,790.00 70,211 view
S 2019-02-20 2019-02-22 16:47:47.0 UNITED TECHNOLOGIES CORP /DE/ UTX JOHRI AKHIL officer (Executive VP and CFO) 3,210 $128.49 $412,467.00 59,705 view
S 2019-02-20 2019-02-22 16:34:25.0 UNITED TECHNOLOGIES CORP /DE/ UTX Gitlin David L. officer (Pres & COO, Collins Aerospace) 7,200 $128.26 $923,489.00 12,893 view
S 2019-02-15 2019-02-19 16:34:35.0 UNITED TECHNOLOGIES CORP /DE/ UTX Dumais Michael R officer (EVP, Operations & Strategy) 6,366 $126.75 $806,885.00 35,953 view
S 2019-02-14 2019-02-15 16:35:24.0 UNITED TECHNOLOGIES CORP /DE/ UTX Amato Elizabeth B officer (EVP & Chief HR Officer) 10,089 $123.84 $1,249,430.00 21,635 view
S 2019-02-06 2019-02-07 16:36:15.0 UNITED TECHNOLOGIES CORP /DE/ UTX Bailey Robert J. officer (Corporate VP, Controller) 862 $121.71 $104,916.00 0 view
S 2019-01-30 2019-01-31 16:34:45.0 UNITED TECHNOLOGIES CORP /DE/ UTX Dumais Michael R officer (EVP, Operations & Strategy) 5,592 $119.04 $665,677.00 26,007 view
S 2019-01-30 2019-01-31 16:34:45.0 UNITED TECHNOLOGIES CORP /DE/ UTX Dumais Michael R officer (EVP, Operations & Strategy) 4,028 $119.22 $480,226.00 31,599 view
S 2018-07-31 2018-08-02 16:34:57.0 UNITED TECHNOLOGIES CORP /DE/ UTX Bailey Robert J. officer (Corporate VP, Controller) 828 $134.75 $111,574.00 1,172 view
S 2018-07-26 2018-07-27 16:36:15.0 UNITED TECHNOLOGIES CORP /DE/ UTX JOHRI AKHIL officer (Executive VP and CFO) 3,428 $135.82 $465,591.00 39,975 view
S 2018-07-26 2018-07-27 16:35:59.0 UNITED TECHNOLOGIES CORP /DE/ UTX Gill Charles D officer (Executive VP & General Counsel) 14,255 $136.43 $1,944,780.00 40,774 view
S 2018-05-22 2018-05-24 16:35:33.0 UNITED TECHNOLOGIES CORP /DE/ UTX JOHRI AKHIL officer (Executive VP and CFO) 6,259 $128.30 $803,037.00 36,138 view
S 2018-05-22 2018-05-24 16:34:03.0 UNITED TECHNOLOGIES CORP /DE/ UTX Gill Charles D officer (Executive VP & General Counsel) 9,700 $128.48 $1,246,200.00 25,029 view
S 2018-05-02 2018-05-04 16:35:45.0 UNITED TECHNOLOGIES CORP /DE/ UTX MCDONOUGH ROBERT J officer (President, UTC CCS) 10,770 $119.09 $1,282,600.00 20,612 view
P 2018-04-27 2018-05-01 17:21:29.0 UNITED TECHNOLOGIES CORP /DE/ UTX Reynolds Fredric G director 9,000 $121.58 $1,094,250.00 22,225 view
S 2018-04-26 2018-05-01 08:51:50.0 UNITED TECHNOLOGIES CORP /DE/ UTX Amato Elizabeth B officer (EVP & Chief HR Officer) 4,283 $123.85 $530,461.00 21,473 view
S 2018-04-26 2018-05-01 08:51:50.0 UNITED TECHNOLOGIES CORP /DE/ UTX Amato Elizabeth B officer (EVP & Chief HR Officer) 2,274 $123.88 $281,693.00 29,173 view
S 2018-02-26 2018-02-28 16:43:40.0 UNITED TECHNOLOGIES CORP /DE/ UTX Bailey Robert J. officer (Corporate VP, Controller) 2,032 $134.95 $274,217.00 2,868 view
S 2018-02-22 2018-02-23 16:39:22.0 UNITED TECHNOLOGIES CORP /DE/ UTX Bailey Robert J. officer (Corporate VP, Controller) 419 $133.73 $56,033.70 0 view
S 2017-12-15 2017-12-18 16:34:34.0 UNITED TECHNOLOGIES CORP /DE/ UTX Amato Elizabeth B officer (EVP & Chief HR Officer) 4,341 $125.92 $546,600.00 21,422 view
S 2017-12-15 2017-12-18 16:34:34.0 UNITED TECHNOLOGIES CORP /DE/ UTX Bailey Robert J. officer (Corporate VP, Controller) 864 $126.01 $108,873.00 1,136 view
S 2017-12-13 2017-12-15 16:36:24.0 UNITED TECHNOLOGIES CORP /DE/ UTX Bailey Robert J. officer (Corporate VP, Controller) 636 $124.35 $79,088.10 864 view
S 2017-12-07 2017-12-11 16:35:24.0 UNITED TECHNOLOGIES CORP /DE/ UTX Bailey Robert J. officer (Corporate VP, Controller) 833 $122.66 $102,176.00 1,167 view
S 2017-12-01 2017-12-04 16:36:14.0 UNITED TECHNOLOGIES CORP /DE/ UTX JOHRI AKHIL officer (Executive VP and CFO) 5,979 $121.03 $723,639.00 12,345 view
S 2017-11-29 2017-12-01 16:35:17.0 UNITED TECHNOLOGIES CORP /DE/ UTX Bailey Robert J. officer (Corporate VP, Controller) 827 $118.06 $97,635.30 1,273 view
S 2017-11-03 2017-11-07 16:34:20.0 UNITED TECHNOLOGIES CORP /DE/ UTX Dumais Michael R officer (EVP, Operations & Strategy) 2,986 $120.98 $361,249.00 24,562 view
S 2017-05-03 2017-05-04 16:34:06.0 UNITED TECHNOLOGIES CORP /DE/ UTX Bailey Robert J. officer (Corporate VP, Controller) 2,702 $119.53 $322,969.00 0 N/A view
S 2017-05-03 2017-05-04 16:33:08.0 UNITED TECHNOLOGIES CORP /DE/ UTX DELPECH PHILIPPE officer (President, Otis Elevator) 7,696 $120.32 $925,993.00 55,925 N/A view
S 2017-02-17 2017-02-21 16:37:36.0 UNITED TECHNOLOGIES CORP /DE/ UTX Gill Charles D officer (Executive VP & General Counsel) 37,975 $112.01 $4,253,770.00 31,778 N/A view
S 2017-02-16 2017-02-17 16:35:47.0 UNITED TECHNOLOGIES CORP /DE/ UTX Dumais Michael R officer (EVP, Operations & Strategy) 2,541 $112.12 $284,906.00 25,007 N/A view
S 2017-02-16 2017-02-17 16:34:56.0 UNITED TECHNOLOGIES CORP /DE/ UTX Amato Elizabeth B officer (EVP & Chief HR Officer) 2,991 $112.02 $335,057.00 27,437 N/A view
S 2017-02-13 2017-02-15 16:35:19.0 UNITED TECHNOLOGIES CORP /DE/ UTX Gitlin David L. officer (Pres., UTC Aerospace Systems) 8,968 $111.67 $1,001,410.00 19,332 N/A view
S 2017-02-08 2017-02-10 16:37:13.0 UNITED TECHNOLOGIES CORP /DE/ UTX HAYES GREGORY director officer (Chairman, President and CEO) 17,450 $110.64 $1,930,610.00 101,869 N/A view
S 2017-02-06 2017-02-08 16:42:46.0 UNITED TECHNOLOGIES CORP /DE/ UTX Gill Charles D officer (Executive VP & General Counsel) 16,329 $111.10 $1,814,160.00 50,893 N/A view
S 2017-02-07 2017-02-08 16:41:35.0 UNITED TECHNOLOGIES CORP /DE/ UTX JOHRI AKHIL officer (Executive VP and CFO) 2,209 $111.41 $246,111.00 16,891 N/A view
S 2017-02-07 2017-02-08 16:41:32.0 UNITED TECHNOLOGIES CORP /DE/ UTX MCDONOUGH ROBERT J officer (President, UTC CCS) 300 $111.32 $33,396.20 11,049 N/A view
P 2016-12-07 2016-12-09 17:03:44.0 UNITED TECHNOLOGIES CORP /DE/ UTX ROGERS BRIAN C director 5,000 $107.94 $539,684.00 5,000 N/A view
S 2016-12-07 2016-12-09 17:03:41.0 UNITED TECHNOLOGIES CORP /DE/ UTX Gill Charles D officer (Executive VP & General Counsel) 15,796 $108.98 $1,721,410.00 60,982 N/A view
S 2016-11-29 2016-12-01 17:03:16.0 UNITED TECHNOLOGIES CORP /DE/ UTX JOHRI AKHIL officer (Executive VP and CFO) 2,109 $109.02 $229,923.00 16,991 N/A view
S 2016-11-14 2016-11-16 17:04:11.0 UNITED TECHNOLOGIES CORP /DE/ UTX HAYES GREGORY director officer (Chairman, President and CEO) 15,748 $108.89 $1,714,860.00 160,381 N/A view
S 2016-11-10 2016-11-14 17:41:43.0 UNITED TECHNOLOGIES CORP /DE/ UTX Bailey Robert J. officer (Corporate VP, Controller) 967 $106.46 $102,946.00 1,033 N/A view
S 2016-02-22 2016-09-02 17:05:14.0 UNITED TECHNOLOGIES CORP /DE/ UTX FARACI JOHN V director 0 $89.10 $11.77 0 N/A view
S 2016-02-10 2016-09-02 17:05:14.0 UNITED TECHNOLOGIES CORP /DE/ UTX FARACI JOHN V director 1,153 $87.96 $101,421.00 0 N/A view
S 2015-10-02 2016-09-02 17:05:14.0 UNITED TECHNOLOGIES CORP /DE/ UTX FARACI JOHN V director 42 $87.14 $3,659.70 1,145 N/A view
P 2015-08-04 2016-09-02 17:05:14.0 UNITED TECHNOLOGIES CORP /DE/ UTX FARACI JOHN V director 239 $99.59 $23,801.60 1,179 N/A view
P 2015-07-10 2016-09-02 17:05:14.0 UNITED TECHNOLOGIES CORP /DE/ UTX FARACI JOHN V director 80 $109.92 $8,793.38 940 N/A view
P 2015-06-03 2016-09-02 17:05:14.0 UNITED TECHNOLOGIES CORP /DE/ UTX FARACI JOHN V director 860 $118.65 $102,043.00 860 N/A view
S 2016-08-11 2016-08-12 17:04:43.0 UNITED TECHNOLOGIES CORP /DE/ UTX Gill Charles D officer (Executive VP & General Counsel) 6,202 $109.00 $676,032.00 45,576 N/A view
S 2016-08-05 2016-08-09 17:03:36.0 UNITED TECHNOLOGIES CORP /DE/ UTX Dumais Michael R officer (SVP, Strategic Planning) 2,349 $107.05 $251,460.00 23,699 N/A view
S 2016-07-28 2016-08-01 17:04:44.0 UNITED TECHNOLOGIES CORP /DE/ UTX DELPECH PHILIPPE officer (President, Otis Elevator) 40,800 $107.72 $4,395,070.00 38,121 N/A view
S 2016-07-28 2016-07-29 17:04:47.0 UNITED TECHNOLOGIES CORP /DE/ UTX MCDONOUGH ROBERT J officer (President, UTC CCS) 3,100 $107.11 $332,033.00 11,349 N/A view
S 2016-07-27 2016-07-29 17:03:48.0 UNITED TECHNOLOGIES CORP /DE/ UTX Gill Charles D officer (Executive VP & General Counsel) 7,144 $108.05 $771,910.00 48,134 N/A view
S 2016-06-08 2016-06-10 17:04:06.0 UNITED TECHNOLOGIES CORP /DE/ UTX Gill Charles D officer (Executive VP & General Counsel) 8,958 $102.04 $914,098.00 46,120 N/A view
S 2016-05-12 2016-05-13 17:26:11.0 UNITED TECHNOLOGIES CORP /DE/ UTX HAYES GREGORY director officer (President and CEO) 980 $102.15 $100,107.00 138,418 N/A view
S 2016-05-10 2016-05-12 17:12:13.0 UNITED TECHNOLOGIES CORP /DE/ UTX Amato Elizabeth B officer (EVP & Chief HR Officer) 3,696 $102.12 $377,448.00 27,060 N/A view
S 2016-04-28 2016-04-29 17:37:47.0 UNITED TECHNOLOGIES CORP /DE/ UTX Gitlin David L. officer (Pres., UTC Aerospace Systems) 7,091 $104.22 $739,024.00 18,645 N/A view
P 2016-02-02 2016-02-02 17:08:24.0 UNITED TECHNOLOGIES CORP /DE/ UTX Reynolds Fredric G director 12,000 $86.20 $1,034,400.00 13,225 N/A view
S 2015-10-26 2015-10-28 17:03:36.0 UNITED TECHNOLOGIES CORP /DE/ UTX Gill Charles D officer (Senior VP and General Counsel) 2,889 $100.88 $291,442.00 26,614 N/A view
S 2015-10-26 2015-10-28 17:03:36.0 UNITED TECHNOLOGIES CORP /DE/ UTX Gill Charles D officer (Senior VP and General Counsel) 500 $100.86 $50,432.00 29,503 N/A view
S 2015-10-26 2015-10-28 17:03:36.0 UNITED TECHNOLOGIES CORP /DE/ UTX Gill Charles D officer (Senior VP and General Counsel) 400 $100.88 $40,352.40 30,003 N/A view
S 2015-10-26 2015-10-28 17:03:36.0 UNITED TECHNOLOGIES CORP /DE/ UTX Gill Charles D officer (Senior VP and General Counsel) 211 $100.86 $21,281.50 30,403 N/A view
S 2015-10-26 2015-10-28 17:03:32.0 UNITED TECHNOLOGIES CORP /DE/ UTX SWYGERT H PATRICK director 1,000 $100.20 $100,203.00 0 N/A view
S 2015-05-15 2015-05-19 17:03:46.0 UNITED TECHNOLOGIES CORP /DE/ UTX Gitlin David L. officer (Pres., UTC Aerospace Systems) 2,792 $119.24 $332,910.00 8,354 N/A view
S 2015-03-16 2015-03-18 17:09:40.0 UNITED TECHNOLOGIES CORP /DE/ UTX WHITMAN CHRISTINE TODD director 3,756 $119.76 $449,822.00 5,350 1.90% view
S 2015-03-16 2015-03-18 17:09:40.0 UNITED TECHNOLOGIES CORP /DE/ UTX WHITMAN CHRISTINE TODD director 44 $119.77 $5,269.88 9,106 1.91% view
S 2015-03-16 2015-03-18 17:08:34.0 UNITED TECHNOLOGIES CORP /DE/ UTX ROGAN THOMAS I officer (Vice President, Treasurer) 5,909 $119.46 $705,884.00 44,561 1.66% view
S 2015-03-16 2015-03-18 17:08:31.0 UNITED TECHNOLOGIES CORP /DE/ UTX Amato Elizabeth B officer (SVP, Human Resources & Org.) 1,268 $119.86 $151,984.00 23,118 1.99% view
S 2015-03-16 2015-03-18 17:08:31.0 UNITED TECHNOLOGIES CORP /DE/ UTX Amato Elizabeth B officer (SVP, Human Resources & Org.) 1,235 $119.23 $147,244.00 24,386 1.46% view
S 2015-03-16 2015-03-18 17:08:31.0 UNITED TECHNOLOGIES CORP /DE/ UTX Amato Elizabeth B officer (SVP, Human Resources & Org.) 1,216 $119.88 $145,774.00 25,620 2.00% view
S 2015-03-16 2015-03-18 17:08:31.0 UNITED TECHNOLOGIES CORP /DE/ UTX Amato Elizabeth B officer (SVP, Human Resources & Org.) 1,184 $119.22 $141,156.00 26,836 1.46% view
S 2015-03-16 2015-03-18 17:08:30.0 UNITED TECHNOLOGIES CORP /DE/ UTX GARNIER JEAN PIERRE director 5,900 $119.62 $705,764.00 11,710 1.79% view
S 2015-03-16 2015-03-18 17:08:30.0 UNITED TECHNOLOGIES CORP /DE/ UTX GARNIER JEAN PIERRE director 100 $119.62 $11,962.40 17,610 1.79% view
S 2015-03-16 2015-03-18 17:08:30.0 UNITED TECHNOLOGIES CORP /DE/ UTX MCGRAW HAROLD III director 5,700 $119.57 $681,538.00 3,605 1.75% view
S 2015-03-16 2015-03-18 17:08:30.0 UNITED TECHNOLOGIES CORP /DE/ UTX MCGRAW HAROLD III director 200 $119.61 $23,921.00 9,305 1.78% view
S 2015-03-16 2015-03-18 17:08:30.0 UNITED TECHNOLOGIES CORP /DE/ UTX MCGRAW HAROLD III director 100 $119.60 $11,960.00 9,505 1.77% view
S 2015-03-13 2015-03-17 17:21:01.0 UNITED TECHNOLOGIES CORP /DE/ UTX DARNIS GERAUD officer (Pres. & CEO, UTC Bldg. & Ind.) 150,513 $121.24 $1.82476E7 151,191 3.16% view
S 2015-03-13 2015-03-17 17:21:01.0 UNITED TECHNOLOGIES CORP /DE/ UTX DARNIS GERAUD officer (Pres. & CEO, UTC Bldg. & Ind.) 8,000 $118.59 $948,726.00 444,691 1.00% view
S 2015-03-13 2015-03-17 17:21:01.0 UNITED TECHNOLOGIES CORP /DE/ UTX Maurer Michael B officer (President, Sikorsky Aircraft) 8,770 $120.67 $1,058,280.00 16,989 2.70% view
S 2014-10-31 2014-11-03 17:14:17.0 UNITED TECHNOLOGIES CORP /DE/ UTX GORELICK JAMIE S director 7,400 $107.35 $794,376.00 9,651 -2.54% view
S 2014-10-31 2014-11-03 17:14:17.0 UNITED TECHNOLOGIES CORP /DE/ UTX GORELICK JAMIE S director 6,000 $107.35 $644,089.00 17,051 -2.54% view
S 2014-08-22 2014-08-26 17:14:10.0 UNITED TECHNOLOGIES CORP /DE/ UTX DARNIS GERAUD officer (Pres. & CEO, UTC Bldg. & Ind.) 50,000 $109.45 $5,472,300.00 138,243 2.72% view
S 2014-06-10 2014-06-11 17:06:11.0 UNITED TECHNOLOGIES CORP /DE/ UTX Adams Paul R. officer (COO, Pratt & Whitney) 5,410 $119.05 $644,076.00 22 4.66% view
S 2014-06-10 2014-06-11 17:06:11.0 UNITED TECHNOLOGIES CORP /DE/ UTX Adams Paul R. officer (COO, Pratt & Whitney) 4,287 $119.03 $510,290.00 10,322 4.64% view
S 2014-06-09 2014-06-10 17:35:29.0 UNITED TECHNOLOGIES CORP /DE/ UTX CHENEVERT LOUIS director officer (Chairman & CEO) 24,979 $119.00 $2,972,470.00 674,044 4.34% view
S 2014-03-10 2014-03-11 17:40:22.0 UNITED TECHNOLOGIES CORP /DE/ UTX MCGRAW HAROLD III director 4,395 $117.53 $516,533.00 3,605 2.52% view
S 2014-03-05 2014-03-06 17:08:21.0 UNITED TECHNOLOGIES CORP /DE/ UTX BELLEMARE ALAIN officer (Pres. & CEO, UTC Prop. & Aero.) 7,000 $117.93 $825,531.00 36,531 -0.21% view
S 2014-02-26 2014-02-28 17:29:42.0 UNITED TECHNOLOGIES CORP /DE/ UTX Amato Elizabeth B officer (SVP, Human Resources & Org.) 7,150 $116.32 $831,717.00 16,511 1.50% view
S 2014-02-26 2014-02-27 17:12:52.0 UNITED TECHNOLOGIES CORP /DE/ UTX Adams Paul R. officer (COO, Pratt & Whitney) 7,300 $116.53 $850,649.00 4,309 1.67% view
S 2014-02-25 2014-02-26 17:14:23.0 UNITED TECHNOLOGIES CORP /DE/ UTX Maurer Michael B officer (President, Sikorsky Aircraft) 11,300 $116.26 $1,313,780.00 13,136 0.92% view
S 2014-02-25 2014-02-26 17:14:23.0 UNITED TECHNOLOGIES CORP /DE/ UTX HAYES GREGORY officer (SVP and CFO) 46,000 $116.51 $5,359,350.00 60,419 1.12% view
S 2014-02-24 2014-02-25 17:05:50.0 UNITED TECHNOLOGIES CORP /DE/ UTX Gill Charles D officer (Senior VP and General Counsel) 10,000 $117.08 $1,170,780.00 20,171 2.84% view
S 2014-02-12 2014-02-12 17:57:51.0 UNITED TECHNOLOGIES CORP /DE/ UTX HAYES GREGORY officer (SVP and CFO) 19,926 $112.22 $2,236,160.00 60,419 -3.20% view
S 2014-01-29 2014-01-30 17:23:51.0 UNITED TECHNOLOGIES CORP /DE/ UTX WHITMAN CHRISTINE TODD director 4,850 $113.50 $550,456.00 3,150 -3.10% view
S 2014-01-23 2014-01-27 17:20:03.0 UNITED TECHNOLOGIES CORP /DE/ UTX BELLEMARE ALAIN officer (Pres. & CEO, UTC Prop. & Aero.) 7,199 $115.22 $829,418.00 50,114 -0.14% view
S 2014-01-23 2014-01-27 17:19:59.0 UNITED TECHNOLOGIES CORP /DE/ UTX DARNIS GERAUD officer (Pres. & CEO, UTC Bldg. & Ind.) 15,476 $114.77 $1,776,130.00 136,955 -0.53% view
S 2013-11-25 2013-11-26 17:17:57.0 UNITED TECHNOLOGIES CORP /DE/ UTX GARNIER JEAN PIERRE director 7,000 $110.50 $773,513.00 11,710 -0.88% view
S 2013-11-20 2013-11-21 17:13:25.0 UNITED TECHNOLOGIES CORP /DE/ UTX GORELICK JAMIE S director 7,000 $109.27 $764,890.00 7,296 -1.27% view
S 2013-11-15 2013-11-18 17:06:17.0 UNITED TECHNOLOGIES CORP /DE/ UTX Adams Paul R. officer (COO, Pratt & Whitney) 8,000 $108.53 $868,231.00 22 1.09% view
S 2013-09-16 2013-09-18 17:25:52.0 UNITED TECHNOLOGIES CORP /DE/ UTX HAYES GREGORY officer (SVP and CFO) 69,904 $109.52 $7,655,970.00 70,596 2.82% view
S 2013-09-16 2013-09-18 17:25:52.0 UNITED TECHNOLOGIES CORP /DE/ UTX HAYES GREGORY officer (SVP and CFO) 30,000 $109.60 $3,288,000.00 60,419 2.89% view
S 2013-09-16 2013-09-18 17:25:52.0 UNITED TECHNOLOGIES CORP /DE/ UTX HAYES GREGORY officer (SVP and CFO) 23,599 $109.50 $2,583,980.00 140,790 2.80% view
S 2013-09-16 2013-09-18 17:25:52.0 UNITED TECHNOLOGIES CORP /DE/ UTX HAYES GREGORY officer (SVP and CFO) 22,530 $109.65 $2,470,420.00 164,389 2.94% view
S 2013-08-13 2013-08-14 17:58:37.0 UNITED TECHNOLOGIES CORP /DE/ UTX DARNIS GERAUD officer (Pres. & CEO, UTC Climate, Cont) 51,000 $106.84 $5,448,670.00 96,240 -1.45% view
S 2013-08-02 2013-08-05 17:08:09.0 UNITED TECHNOLOGIES CORP /DE/ UTX Baranda Riva, Pedro Sainz De officer (President, Otis Elevator) 9,400 $107.00 $1,005,800.00 2,518 6.45% view
S 2013-07-31 2013-08-01 17:05:28.0 UNITED TECHNOLOGIES CORP /DE/ UTX ROGAN THOMAS I officer (Vice President, Treasurer) 2,456 $106.16 $260,726.00 43,250 5.71% view
S 2013-07-31 2013-08-01 17:05:28.0 UNITED TECHNOLOGIES CORP /DE/ UTX ROGAN THOMAS I officer (Vice President, Treasurer) 2,000 $106.16 $212,318.00 45,706 5.71% view
S 2013-07-31 2013-08-01 17:05:28.0 UNITED TECHNOLOGIES CORP /DE/ UTX ROGAN THOMAS I officer (Vice President, Treasurer) 2,000 $106.17 $212,344.00 47,706 5.72% view
S 2013-07-29 2013-07-31 17:08:10.0 UNITED TECHNOLOGIES CORP /DE/ UTX CHENEVERT LOUIS director officer (Chairman & CEO) 9,192 $104.60 $961,483.00 537,857 3.96% view
S 2013-07-29 2013-07-31 17:08:07.0 UNITED TECHNOLOGIES CORP /DE/ UTX Gill Charles D officer (Senior VP and General Counsel) 5,356 $105.05 $562,664.00 23,126 4.37% view
S 2013-07-29 2013-07-31 17:08:07.0 UNITED TECHNOLOGIES CORP /DE/ UTX BELLEMARE ALAIN officer (Pres. & CEO, UTC Prop. & Aero.) 32,000 $104.70 $3,350,460.00 29,813 4.05% view
S 2013-06-14 2013-06-14 17:12:32.0 UNITED TECHNOLOGIES CORP /DE/ UTX VILLENEUVE ANDRE F H director 6,000 $94.23 $565,388.00 0 -5.94% view
S 2013-05-21 2013-05-22 17:04:22.0 UNITED TECHNOLOGIES CORP /DE/ UTX ROGAN THOMAS I officer (Vice President, Treasurer) 4,010 $97.90 $392,579.00 27,106 5.84% view
S 2013-05-21 2013-05-22 17:04:22.0 UNITED TECHNOLOGIES CORP /DE/ UTX ROGAN THOMAS I officer (Vice President, Treasurer) 1,000 $97.68 $97,680.00 31,116 5.63% view
S 2013-05-21 2013-05-22 17:04:22.0 UNITED TECHNOLOGIES CORP /DE/ UTX ROGAN THOMAS I officer (Vice President, Treasurer) 898 $97.68 $87,717.50 32,116 5.63% view
S 2013-03-15 2013-03-18 17:18:26.0 UNITED TECHNOLOGIES CORP /DE/ UTX Amato Elizabeth B officer (SVP, Human Resources & Org.) 8,400 $93.18 $782,712.00 14,381 -0.36% view
S 2013-03-12 2013-03-13 17:23:18.0 UNITED TECHNOLOGIES CORP /DE/ UTX LONGO PETER F. officer (Vice President, Controller) 5,000 $93.13 $465,626.00 18,861 -2.75% view
S 2013-03-11 2013-03-11 17:21:05.0 UNITED TECHNOLOGIES CORP /DE/ UTX Gill Charles D officer (Senior VP and General Counsel) 15,500 $92.25 $1,429,880.00 16,882 -3.87% view
S 2013-03-05 2013-03-05 17:10:42.0 UNITED TECHNOLOGIES CORP /DE/ UTX Gill Charles D officer (Senior VP and General Counsel) 3,750 $91.21 $342,026.00 16,882 -1.57% view
S 2013-02-28 2013-02-28 17:22:32.0 UNITED TECHNOLOGIES CORP /DE/ UTX HAYES GREGORY officer (SVP and CFO) 21,400 $90.83 $1,943,790.00 60,419 -2.86% view
S 2013-02-27 2013-02-28 17:22:32.0 UNITED TECHNOLOGIES CORP /DE/ UTX GARNIER JEAN PIERRE director 8,000 $90.31 $722,515.00 11,710 -2.54% view
S 2013-02-20 2013-02-22 17:11:16.0 UNITED TECHNOLOGIES CORP /DE/ UTX Amato Elizabeth B officer (SVP, Human Resources & Org.) 8,400 $90.29 $758,397.00 14,330 -3.51% view
S 2013-02-20 2013-02-22 17:11:16.0 UNITED TECHNOLOGIES CORP /DE/ UTX Hess David P officer (President, Pratt & Whitney) 45,181 $90.99 $4,110,860.00 243,213 -2.71% view
S 2013-02-20 2013-02-22 17:11:16.0 UNITED TECHNOLOGIES CORP /DE/ UTX Hess David P officer (President, Pratt & Whitney) 17,715 $91.06 $1,613,110.00 288,394 -2.63% view
S 2013-02-20 2013-02-22 17:11:16.0 UNITED TECHNOLOGIES CORP /DE/ UTX Hess David P officer (President, Pratt & Whitney) 13,348 $91.03 $1,215,030.00 306,109 -2.66% view
S 2013-02-19 2013-02-19 17:08:59.0 UNITED TECHNOLOGIES CORP /DE/ UTX LONGO PETER F. officer (Vice President, Controller) 1,477 $91.03 $134,452.00 18,861 -2.28% view
S 2013-02-12 2013-02-13 17:11:07.0 UNITED TECHNOLOGIES CORP /DE/ UTX BELLEMARE ALAIN officer (Pres. & CEO, UTC Prop. & Aero.) 7,336 $89.91 $659,592.00 29,813 -3.59% view
S 2013-02-12 2013-02-13 17:11:07.0 UNITED TECHNOLOGIES CORP /DE/ UTX BELLEMARE ALAIN officer (Pres. & CEO, UTC Prop. & Aero.) 1,350 $89.91 $121,381.00 37,149 -3.59% view
S 2013-02-12 2013-02-13 17:09:49.0 UNITED TECHNOLOGIES CORP /DE/ UTX LONGO PETER F. officer (Vice President, Controller) 3,800 $90.00 $342,000.00 20,338 -3.49% view
S 2013-02-07 2013-02-07 17:17:01.0 UNITED TECHNOLOGIES CORP /DE/ UTX Baranda Riva, Pedro Sainz De officer (President, Otis Elevator) 5,400 $89.20 $481,683.00 900 -2.81% view
S 2013-01-31 2013-02-01 17:07:12.0 UNITED TECHNOLOGIES CORP /DE/ UTX Maurer Michael B officer (President, Sikorsky Aircraft) 15,000 $88.85 $1,332,800.00 8,107 -1.91% view
S 2013-01-24 2013-01-25 17:20:16.0 UNITED TECHNOLOGIES CORP /DE/ UTX BELLEMARE ALAIN officer (Pres. & CEO, UTC Prop. & Aero.) 10,000 $87.85 $878,500.00 26,054 -3.01% view
S 2013-01-24 2013-01-25 17:20:03.0 UNITED TECHNOLOGIES CORP /DE/ UTX Gill Charles D officer (Senior VP and General Counsel) 4,750 $88.41 $419,959.00 10,382 -2.35% view
S 2013-01-24 2013-01-25 17:20:03.0 UNITED TECHNOLOGIES CORP /DE/ UTX CHENEVERT LOUIS director officer (Chairman & CEO) 9,830 $88.52 $870,178.00 442,882 -2.22% view
S 2013-01-24 2013-01-25 17:20:03.0 UNITED TECHNOLOGIES CORP /DE/ UTX LONGO PETER F. officer (Vice President, Controller) 10,000 $88.48 $884,821.00 18,132 -2.27% view
S 2013-01-24 2013-01-25 17:18:54.0 UNITED TECHNOLOGIES CORP /DE/ UTX DARNIS GERAUD officer (Pres. & CEO, UTC Climate, Cont) 35,241 $88.60 $3,122,350.00 152,669 -2.13% view
S 2012-12-07 2012-12-07 17:30:37.0 UNITED TECHNOLOGIES CORP /DE/ UTX CHENEVERT LOUIS director officer (Chairman & CEO) 13,990 $81.01 $1,133,300.00 382,712 -4.40% view
S 2012-12-06 2012-12-07 17:10:11.0 UNITED TECHNOLOGIES CORP /DE/ UTX MCCORMICK RICHARD D director 10,634 $80.60 $857,083.00 50,154 -5.44% view
S 2012-12-05 2012-12-06 17:04:24.0 UNITED TECHNOLOGIES CORP /DE/ UTX Bowler J Thomas JR officer (SVP, Human Resources and Org.) 7,137 $80.38 $573,643.00 36,313 -5.73% view
S 2012-11-30 2012-12-03 17:12:21.0 UNITED TECHNOLOGIES CORP /DE/ UTX CHENEVERT LOUIS director officer (Chairman & CEO) 22,337 $80.30 $1,793,710.00 396,702 -0.63% view
S 2012-11-30 2012-12-03 17:12:21.0 UNITED TECHNOLOGIES CORP /DE/ UTX CHENEVERT LOUIS director officer (Chairman & CEO) 5,563 $80.30 $446,709.00 419,039 -0.64% view
S 2012-11-29 2012-12-03 17:12:21.0 UNITED TECHNOLOGIES CORP /DE/ UTX CHENEVERT LOUIS director officer (Chairman & CEO) 42,500 $80.00 $3,400,000.00 382,102 -1.01% view
S 2012-11-30 2012-11-30 17:12:58.0 UNITED TECHNOLOGIES CORP /DE/ UTX LONGO PETER F. officer (Vice President, Controller) 5,000 $79.90 $399,498.00 18,013 -1.14% view
S 2012-11-06 2012-11-06 17:19:02.0 UNITED TECHNOLOGIES CORP /DE/ UTX ROGAN THOMAS I officer (Vice President, Treasurer) 5,679 $79.40 $450,913.00 29,317 -1.85% view
S 2012-10-31 2012-11-01 17:27:22.0 UNITED TECHNOLOGIES CORP /DE/ UTX GORELICK JAMIE S director 8,000 $78.90 $631,169.00 7,296 -1.54% view
S 2012-09-14 2012-09-18 17:17:04.0 UNITED TECHNOLOGIES CORP /DE/ UTX CHENEVERT LOUIS director officer (Chairman & CEO) 14,000 $81.77 $1,144,830.00 437,454 7.11% view
S 2012-09-12 2012-09-14 17:07:05.0 UNITED TECHNOLOGIES CORP /DE/ UTX VILLENEUVE ANDRE F H director 15,000 $79.07 $1,185,980.00 0 3.93% view
S 2012-08-17 2012-08-21 17:18:07.0 UNITED TECHNOLOGIES CORP /DE/ UTX LONGO PETER F. officer (Vice President, Controller) 4,435 $79.68 $353,381.00 17,892 -3.10% view
S 2012-08-17 2012-08-21 17:18:07.0 UNITED TECHNOLOGIES CORP /DE/ UTX LONGO PETER F. officer (Vice President, Controller) 3,981 $0.00 $0.00 22,327 view
S 2012-08-17 2012-08-21 17:18:07.0 UNITED TECHNOLOGIES CORP /DE/ UTX LONGO PETER F. officer (Vice President, Controller) 2,084 $0.00 $0.00 26,308 view
S 2012-08-17 2012-08-21 17:18:07.0 UNITED TECHNOLOGIES CORP /DE/ UTX LONGO PETER F. officer (Vice President, Controller) 300 $0.00 $0.00 28,392 view
S 2012-08-07 2012-08-09 17:10:00.0 UNITED TECHNOLOGIES CORP /DE/ UTX Amato Elizabeth B officer (SVP, Human Resources & Org.) 8,600 $78.28 $673,208.00 5,862 -1.44% view
S 2012-08-07 2012-08-09 17:10:00.0 UNITED TECHNOLOGIES CORP /DE/ UTX Amato Elizabeth B officer (SVP, Human Resources & Org.) 900 $78.28 $70,453.80 14,462 -1.44% view
S 2012-08-07 2012-08-09 17:10:00.0 UNITED TECHNOLOGIES CORP /DE/ UTX Amato Elizabeth B officer (SVP, Human Resources & Org.) 500 $78.30 $39,150.00 15,362 -1.42% view
S 2012-08-08 2012-08-08 17:26:37.0 UNITED TECHNOLOGIES CORP /DE/ UTX Gill Charles D officer (Senior VP and General Counsel) 801 $78.16 $62,606.20 15,132 -1.60% view
S 2012-08-08 2012-08-08 17:26:37.0 UNITED TECHNOLOGIES CORP /DE/ UTX Gill Charles D officer (Senior VP and General Counsel) 600 $78.17 $46,903.50 15,933 -1.58% view
S 2012-08-08 2012-08-08 17:26:37.0 UNITED TECHNOLOGIES CORP /DE/ UTX Gill Charles D officer (Senior VP and General Counsel) 598 $78.05 $46,673.90 16,533 -1.74% view
S 2012-08-08 2012-08-08 17:26:37.0 UNITED TECHNOLOGIES CORP /DE/ UTX Gill Charles D officer (Senior VP and General Counsel) 301 $78.15 $23,523.20 17,131 -1.61% view
S 2012-08-08 2012-08-08 17:26:37.0 UNITED TECHNOLOGIES CORP /DE/ UTX Gill Charles D officer (Senior VP and General Counsel) 200 $78.06 $15,612.00 17,432 -1.73% view
S 2012-08-08 2012-08-08 17:26:37.0 UNITED TECHNOLOGIES CORP /DE/ UTX Gill Charles D officer (Senior VP and General Counsel) 100 $78.07 $7,807.00 17,632 -1.72% view
S 2012-08-08 2012-08-08 17:26:37.0 UNITED TECHNOLOGIES CORP /DE/ UTX Gill Charles D officer (Senior VP and General Counsel) 100 $78.17 $7,817.00 17,732 -1.59% view
S 2012-08-08 2012-08-08 17:26:37.0 UNITED TECHNOLOGIES CORP /DE/ UTX Gill Charles D officer (Senior VP and General Counsel) 50 $78.21 $3,910.50 17,832 -1.53% view
S 2012-05-01 2012-05-02 17:11:26.0 UNITED TECHNOLOGIES CORP /DE/ UTX Baranda Riva, Pedro Sainz De officer (President, Otis Elevator) 2,064 $82.11 $169,483.00 900 12.29% view
S 2012-05-01 2012-05-02 17:11:26.0 UNITED TECHNOLOGIES CORP /DE/ UTX Baranda Riva, Pedro Sainz De officer (President, Otis Elevator) 100 $82.11 $8,211.00 2,964 12.29% view
S 2012-02-15 2012-03-22 17:13:51.0 UNITED TECHNOLOGIES CORP /DE/ UTX WHITMAN CHRISTINE TODD director 400 $83.58 $33,432.80 0 -3.96% view
S 2012-02-22 2012-02-24 17:20:46.0 UNITED TECHNOLOGIES CORP /DE/ UTX Gill Charles D officer (Senior VP and General Counsel) 1,778 $84.00 $149,354.00 17,882 2.30% view
S 2012-02-22 2012-02-24 17:20:46.0 UNITED TECHNOLOGIES CORP /DE/ UTX Gill Charles D officer (Senior VP and General Counsel) 638 $84.01 $53,598.40 19,660 2.31% view
S 2012-02-22 2012-02-24 17:20:46.0 UNITED TECHNOLOGIES CORP /DE/ UTX Gill Charles D officer (Senior VP and General Counsel) 384 $84.02 $32,263.70 20,298 2.32% view
S 2012-02-22 2012-02-24 17:20:46.0 UNITED TECHNOLOGIES CORP /DE/ UTX Gill Charles D officer (Senior VP and General Counsel) 100 $84.01 $8,401.11 20,682 2.31% view
S 2012-02-22 2012-02-24 17:20:46.0 UNITED TECHNOLOGIES CORP /DE/ UTX Gill Charles D officer (Senior VP and General Counsel) 100 $84.03 $8,402.50 20,782 2.33% view
S 2012-02-24 2012-02-24 17:20:46.0 UNITED TECHNOLOGIES CORP /DE/ UTX LONGO PETER F. officer (Vice President, Controller) 374 $83.97 $31,404.80 0 2.58% view
S 2012-02-22 2012-02-24 17:20:46.0 UNITED TECHNOLOGIES CORP /DE/ UTX LONGO PETER F. officer (Vice President, Controller) 10,000 $83.81 $838,140.00 17,678 2.08% view
S 2012-02-14 2012-02-16 17:32:46.0 UNITED TECHNOLOGIES CORP /DE/ UTX Dumais Michael R officer (President, Hamilton Sundstrand) 18,000 $84.50 $1,521,000.00 4,657 -2.73% view
S 2012-02-13 2012-02-15 17:15:45.0 UNITED TECHNOLOGIES CORP /DE/ UTX BELLEMARE ALAIN officer (Pres. & COO, UTC Prop. & Aero.) 2,900 $84.25 $244,337.00 26,054 -2.75% view
S 2012-02-13 2012-02-15 17:15:45.0 UNITED TECHNOLOGIES CORP /DE/ UTX BELLEMARE ALAIN officer (Pres. & COO, UTC Prop. & Aero.) 2,874 $84.25 $242,137.00 28,954 -2.75% view
S 2012-02-13 2012-02-15 17:15:45.0 UNITED TECHNOLOGIES CORP /DE/ UTX BELLEMARE ALAIN officer (Pres. & COO, UTC Prop. & Aero.) 100 $84.25 $8,425.18 31,828 -2.75% view
S 2012-02-13 2012-02-15 17:15:45.0 UNITED TECHNOLOGIES CORP /DE/ UTX BELLEMARE ALAIN officer (Pres. & COO, UTC Prop. & Aero.) 100 $84.25 $8,425.19 31,928 -2.75% view
S 2012-02-13 2012-02-15 17:15:45.0 UNITED TECHNOLOGIES CORP /DE/ UTX BELLEMARE ALAIN officer (Pres. & COO, UTC Prop. & Aero.) 100 $84.26 $8,426.10 32,028 -2.74% view
S 2012-02-13 2012-02-15 17:15:45.0 UNITED TECHNOLOGIES CORP /DE/ UTX BELLEMARE ALAIN officer (Pres. & COO, UTC Prop. & Aero.) 100 $84.26 $8,426.20 32,128 -2.74% view
S 2012-02-10 2012-02-14 17:17:42.0 UNITED TECHNOLOGIES CORP /DE/ UTX Hess David P officer (President, Pratt & Whitney) 30,203 $83.28 $2,515,190.00 204,759 -0.33% view
S 2012-02-03 2012-02-07 17:34:03.0 UNITED TECHNOLOGIES CORP /DE/ UTX DARNIS GERAUD officer (Pres. & CEO, UTC Climate, Cont) 30,000 $80.89 $2,426,700.00 81,701 -4.51% view
S 2012-02-03 2012-02-07 17:34:03.0 UNITED TECHNOLOGIES CORP /DE/ UTX DARNIS GERAUD officer (Pres. & CEO, UTC Climate, Cont) 0 $81.17 $30.00 111,701 -4.15% view
S 2012-02-01 2012-02-03 17:22:38.0 UNITED TECHNOLOGIES CORP /DE/ UTX Michaud-Daniel Didier officer (President, Otis Elevator) 24,000 $79.95 $1,918,800.00 54,310 -5.27% view
S 2012-02-01 2012-02-03 17:22:38.0 UNITED TECHNOLOGIES CORP /DE/ UTX Michaud-Daniel Didier officer (President, Otis Elevator) 5,902 $80.03 $472,337.00 78,310 -5.16% view
S 2012-02-01 2012-02-03 17:22:38.0 UNITED TECHNOLOGIES CORP /DE/ UTX Michaud-Daniel Didier officer (President, Otis Elevator) 3,862 $80.05 $309,153.00 84,212 -5.13% view
S 2012-02-01 2012-02-03 17:22:38.0 UNITED TECHNOLOGIES CORP /DE/ UTX Michaud-Daniel Didier officer (President, Otis Elevator) 1,300 $80.05 $104,066.00 88,074 -5.13% view
S 2012-02-01 2012-02-03 17:22:38.0 UNITED TECHNOLOGIES CORP /DE/ UTX Michaud-Daniel Didier officer (President, Otis Elevator) 690 $79.97 $55,179.40 89,374 -5.24% view
S 2012-02-01 2012-02-03 17:22:38.0 UNITED TECHNOLOGIES CORP /DE/ UTX Michaud-Daniel Didier officer (President, Otis Elevator) 551 $80.04 $44,102.00 90,064 -5.15% view
S 2012-02-01 2012-02-03 17:22:38.0 UNITED TECHNOLOGIES CORP /DE/ UTX Michaud-Daniel Didier officer (President, Otis Elevator) 100 $80.05 $8,005.05 90,615 -5.13% view
S 2011-12-19 2011-12-20 17:07:07.0 UNITED TECHNOLOGIES CORP /DE/ UTX GORELICK JAMIE S director 1,520 $72.70 $110,504.00 7,296 -6.18% view
S 2011-12-19 2011-12-20 17:06:11.0 UNITED TECHNOLOGIES CORP /DE/ UTX VILLENEUVE ANDRE F H director 5,000 $72.70 $363,500.00 0 -6.18% view
S 2011-12-19 2011-12-20 17:06:00.0 UNITED TECHNOLOGIES CORP /DE/ UTX GARNIER JEAN PIERRE director 2,200 $72.76 $160,072.00 11,710 -6.09% view
S 2011-12-19 2011-12-20 17:06:00.0 UNITED TECHNOLOGIES CORP /DE/ UTX GARNIER JEAN PIERRE director 1,355 $72.76 $98,591.20 13,910 -6.09% view
S 2011-12-05 2011-12-05 17:43:30.0 UNITED TECHNOLOGIES CORP /DE/ UTX BUCKHOUT SCOTT A. officer (President, UTC Fire & Security) 2,399 $78.00 $187,122.00 3,029 4.71% view
S 2011-10-28 2011-10-28 17:20:26.0 UNITED TECHNOLOGIES CORP /DE/ UTX ROGAN THOMAS I officer (Vice President, Treasurer) 8,000 $79.30 $634,400.00 43,695 7.77% view
S 2011-10-28 2011-10-28 17:20:26.0 UNITED TECHNOLOGIES CORP /DE/ UTX ROGAN THOMAS I officer (Vice President, Treasurer) 3,812 $79.50 $303,054.00 51,695 8.00% view
S 2011-10-27 2011-10-28 17:05:54.0 UNITED TECHNOLOGIES CORP /DE/ UTX Bowler J Thomas JR officer (SVP, Human Resources and Org.) 30,000 $79.60 $2,388,000.00 21,326 10.75% view
S 2011-10-25 2011-10-27 17:06:57.0 UNITED TECHNOLOGIES CORP /DE/ UTX Hess David P officer (President, Pratt & Whitney) 40,000 $75.83 $3,033,320.00 40,174 6.32% view
S 2011-10-25 2011-10-26 17:16:41.0 UNITED TECHNOLOGIES CORP /DE/ UTX DARNIS GERAUD officer (Pres. & CEO, UTC Climate, Cont) 6,877 $75.15 $516,813.00 128,837 5.47% view
S 2011-10-25 2011-10-26 17:16:41.0 UNITED TECHNOLOGIES CORP /DE/ UTX DARNIS GERAUD officer (Pres. & CEO, UTC Climate, Cont) 3,100 $75.15 $232,971.00 135,714 5.47% view
S 2011-10-20 2011-10-20 17:52:41.0 UNITED TECHNOLOGIES CORP /DE/ UTX GORELICK JAMIE S director 3,200 $73.41 $234,918.00 5,494 -3.68% view
S 2011-10-20 2011-10-20 17:52:41.0 UNITED TECHNOLOGIES CORP /DE/ UTX GORELICK JAMIE S director 1,188 $73.41 $87,212.30 8,694 -3.68% view
S 2011-10-20 2011-10-20 17:52:41.0 UNITED TECHNOLOGIES CORP /DE/ UTX GORELICK JAMIE S director 300 $73.42 $22,026.30 9,882 -3.66% view
S 2011-10-20 2011-10-20 17:52:41.0 UNITED TECHNOLOGIES CORP /DE/ UTX GORELICK JAMIE S director 200 $73.43 $14,685.00 10,182 -3.66% view
S 2011-10-20 2011-10-20 17:52:41.0 UNITED TECHNOLOGIES CORP /DE/ UTX GORELICK JAMIE S director 100 $73.42 $7,342.20 10,382 -3.66% view
S 2011-10-20 2011-10-20 17:52:41.0 UNITED TECHNOLOGIES CORP /DE/ UTX GORELICK JAMIE S director 12 $73.41 $880.96 10,482 -3.67% view
S 2011-08-26 2011-08-26 17:15:11.0 UNITED TECHNOLOGIES CORP /DE/ UTX DARNIS GERAUD officer (President, Carrier Corporation) 6,260 $70.05 $438,513.00 108,814 -2.14% view
S 2011-08-16 2011-08-17 17:47:05.0 UNITED TECHNOLOGIES CORP /DE/ UTX GORELICK JAMIE S director 5,000 $72.70 $363,500.00 5,494 -3.85% view
S 2011-05-04 2011-05-05 19:33:37.0 UNITED TECHNOLOGIES CORP /DE/ UTX BELLEMARE ALAIN officer (President, Hamilton Sundstrand) 2,100 $89.13 $187,173.00 26,054 6.61% view
S 2011-05-04 2011-05-05 19:33:37.0 UNITED TECHNOLOGIES CORP /DE/ UTX BELLEMARE ALAIN officer (President, Hamilton Sundstrand) 1,700 $89.15 $151,555.00 28,154 6.63% view
S 2011-05-04 2011-05-05 19:33:37.0 UNITED TECHNOLOGIES CORP /DE/ UTX BELLEMARE ALAIN officer (President, Hamilton Sundstrand) 1,500 $89.14 $133,710.00 29,854 6.62% view
S 2011-05-04 2011-05-05 19:33:37.0 UNITED TECHNOLOGIES CORP /DE/ UTX BELLEMARE ALAIN officer (President, Hamilton Sundstrand) 1,100 $89.17 $98,087.00 31,354 6.65% view
S 2011-05-04 2011-05-05 19:33:37.0 UNITED TECHNOLOGIES CORP /DE/ UTX BELLEMARE ALAIN officer (President, Hamilton Sundstrand) 1,000 $89.19 $89,190.00 32,454 6.67% view
S 2011-05-04 2011-05-05 19:33:37.0 UNITED TECHNOLOGIES CORP /DE/ UTX BELLEMARE ALAIN officer (President, Hamilton Sundstrand) 900 $89.16 $80,244.00 33,454 6.64% view
S 2011-05-04 2011-05-05 19:33:37.0 UNITED TECHNOLOGIES CORP /DE/ UTX BELLEMARE ALAIN officer (President, Hamilton Sundstrand) 700 $89.12 $62,384.00 34,354 6.60% view
S 2011-05-04 2011-05-05 19:33:37.0 UNITED TECHNOLOGIES CORP /DE/ UTX BELLEMARE ALAIN officer (President, Hamilton Sundstrand) 400 $89.11 $35,644.00 35,054 6.59% view
S 2011-05-04 2011-05-05 19:33:37.0 UNITED TECHNOLOGIES CORP /DE/ UTX BELLEMARE ALAIN officer (President, Hamilton Sundstrand) 300 $89.18 $26,754.00 35,454 6.66% view
S 2011-05-04 2011-05-05 19:33:37.0 UNITED TECHNOLOGIES CORP /DE/ UTX BELLEMARE ALAIN officer (President, Hamilton Sundstrand) 100 $89.11 $8,911.13 35,754 6.59% view
S 2011-05-04 2011-05-05 19:33:37.0 UNITED TECHNOLOGIES CORP /DE/ UTX BELLEMARE ALAIN officer (President, Hamilton Sundstrand) 100 $89.13 $8,913.03 35,854 6.61% view
S 2011-05-04 2011-05-05 19:33:37.0 UNITED TECHNOLOGIES CORP /DE/ UTX BELLEMARE ALAIN officer (President, Hamilton Sundstrand) 100 $89.13 $8,913.04 35,954 6.61% view
S 2011-05-02 2011-05-03 17:14:29.0 UNITED TECHNOLOGIES CORP /DE/ UTX Brown William M officer (SVP, Corporate Strategy & Deve) 8,766 $90.37 $792,183.00 26,869 6.73% view
S 2011-05-02 2011-05-03 17:14:29.0 UNITED TECHNOLOGIES CORP /DE/ UTX Brown William M officer (SVP, Corporate Strategy & Deve) 6,900 $90.30 $623,070.00 35,635 6.66% view
S 2011-05-02 2011-05-03 17:14:29.0 UNITED TECHNOLOGIES CORP /DE/ UTX Brown William M officer (SVP, Corporate Strategy & Deve) 6,528 $90.32 $589,609.00 42,535 6.68% view
S 2011-05-02 2011-05-03 17:14:29.0 UNITED TECHNOLOGIES CORP /DE/ UTX Brown William M officer (SVP, Corporate Strategy & Deve) 5,628 $90.39 $508,715.00 49,063 6.75% view
S 2011-05-02 2011-05-03 17:14:29.0 UNITED TECHNOLOGIES CORP /DE/ UTX Brown William M officer (SVP, Corporate Strategy & Deve) 3,269 $90.35 $295,354.00 54,691 6.71% view
S 2011-05-02 2011-05-03 17:14:29.0 UNITED TECHNOLOGIES CORP /DE/ UTX Brown William M officer (SVP, Corporate Strategy & Deve) 1,200 $90.33 $108,396.00 57,960 6.69% view
S 2011-05-02 2011-05-03 17:14:29.0 UNITED TECHNOLOGIES CORP /DE/ UTX Brown William M officer (SVP, Corporate Strategy & Deve) 509 $90.34 $45,983.10 59,160 6.70% view
S 2011-05-02 2011-05-03 17:14:29.0 UNITED TECHNOLOGIES CORP /DE/ UTX Brown William M officer (SVP, Corporate Strategy & Deve) 500 $90.40 $45,200.00 59,669 6.76% view
S 2011-05-02 2011-05-03 17:14:29.0 UNITED TECHNOLOGIES CORP /DE/ UTX Brown William M officer (SVP, Corporate Strategy & Deve) 100 $90.31 $9,031.00 60,169 6.67% view
S 2011-04-28 2011-04-29 17:18:12.0 UNITED TECHNOLOGIES CORP /DE/ UTX JOHRI AKHIL officer (VP, Financial Planning & IR) 1,100 $88.91 $97,801.00 13,092 2.90% view
S 2011-04-28 2011-04-29 17:18:12.0 UNITED TECHNOLOGIES CORP /DE/ UTX JOHRI AKHIL officer (VP, Financial Planning & IR) 900 $88.90 $80,010.00 14,192 2.89% view
S 2011-04-28 2011-04-29 17:18:12.0 UNITED TECHNOLOGIES CORP /DE/ UTX JOHRI AKHIL officer (VP, Financial Planning & IR) 245 $88.89 $21,778.10 15,092 2.88% view
S 2011-04-25 2011-04-26 17:15:45.0 UNITED TECHNOLOGIES CORP /DE/ UTX LONGO PETER F. officer (Vice President, Controller) 11,760 $86.50 $1,017,240.00 15,459 0.28% view
S 2011-04-25 2011-04-26 17:15:45.0 UNITED TECHNOLOGIES CORP /DE/ UTX LONGO PETER F. officer (Vice President, Controller) 4,200 $86.52 $363,384.00 27,219 0.30% view
S 2011-04-25 2011-04-26 17:15:45.0 UNITED TECHNOLOGIES CORP /DE/ UTX LONGO PETER F. officer (Vice President, Controller) 2,719 $86.54 $235,302.00 31,419 0.32% view
S 2011-04-25 2011-04-26 17:15:45.0 UNITED TECHNOLOGIES CORP /DE/ UTX LONGO PETER F. officer (Vice President, Controller) 2,157 $86.55 $186,688.00 34,138 0.34% view
S 2011-04-25 2011-04-26 17:15:45.0 UNITED TECHNOLOGIES CORP /DE/ UTX LONGO PETER F. officer (Vice President, Controller) 1,864 $86.51 $161,255.00 36,295 0.29% view
S 2011-04-25 2011-04-26 17:15:45.0 UNITED TECHNOLOGIES CORP /DE/ UTX LONGO PETER F. officer (Vice President, Controller) 600 $86.53 $51,918.00 38,159 0.31% view
S 2011-04-25 2011-04-26 17:15:45.0 UNITED TECHNOLOGIES CORP /DE/ UTX LONGO PETER F. officer (Vice President, Controller) 100 $86.51 $8,651.05 38,759 0.29% view
S 2011-04-21 2011-04-21 17:19:34.0 UNITED TECHNOLOGIES CORP /DE/ UTX Gill Charles D officer (Senior VP and General Counsel) 3,500 $86.00 $301,000.00 15,050 -1.74% view
S 2011-04-21 2011-04-21 17:19:24.0 UNITED TECHNOLOGIES CORP /DE/ UTX DARNIS GERAUD officer (President, Carrier Corporation) 6,013 $86.77 $521,748.00 134,451 -0.84% view
S 2011-04-21 2011-04-21 17:19:24.0 UNITED TECHNOLOGIES CORP /DE/ UTX DARNIS GERAUD officer (President, Carrier Corporation) 4,774 $86.80 $414,383.00 140,464 -0.81% view
S 2011-04-21 2011-04-21 17:19:24.0 UNITED TECHNOLOGIES CORP /DE/ UTX DARNIS GERAUD officer (President, Carrier Corporation) 1,945 $86.81 $168,836.00 145,238 -0.80% view
S 2011-04-21 2011-04-21 17:19:24.0 UNITED TECHNOLOGIES CORP /DE/ UTX DARNIS GERAUD officer (President, Carrier Corporation) 631 $86.78 $54,758.20 147,183 -0.83% view
S 2011-04-21 2011-04-21 17:19:24.0 UNITED TECHNOLOGIES CORP /DE/ UTX DARNIS GERAUD officer (President, Carrier Corporation) 600 $86.76 $52,056.00 147,814 -0.85% view
S 2011-04-21 2011-04-21 17:19:24.0 UNITED TECHNOLOGIES CORP /DE/ UTX DARNIS GERAUD officer (President, Carrier Corporation) 400 $86.79 $34,716.00 148,414 -0.82% view
S 2011-02-22 2011-02-23 17:30:19.0 UNITED TECHNOLOGIES CORP /DE/ UTX CHENEVERT LOUIS director officer (Chairman & CEO) 5,247 $83.96 $440,538.00 391,624 3.67% view
S 2011-02-22 2011-02-23 17:30:19.0 UNITED TECHNOLOGIES CORP /DE/ UTX CHENEVERT LOUIS director officer (Chairman & CEO) 3,500 $83.98 $293,930.00 396,871 3.69% view
S 2011-02-22 2011-02-23 17:30:19.0 UNITED TECHNOLOGIES CORP /DE/ UTX CHENEVERT LOUIS director officer (Chairman & CEO) 2,900 $83.97 $243,513.00 400,371 3.68% view
S 2011-02-22 2011-02-23 17:30:19.0 UNITED TECHNOLOGIES CORP /DE/ UTX CHENEVERT LOUIS director officer (Chairman & CEO) 1,400 $84.02 $117,628.00 403,271 3.74% view
S 2011-02-22 2011-02-23 17:30:19.0 UNITED TECHNOLOGIES CORP /DE/ UTX CHENEVERT LOUIS director officer (Chairman & CEO) 1,000 $83.96 $83,965.00 404,671 3.67% view
S 2011-02-22 2011-02-23 17:30:19.0 UNITED TECHNOLOGIES CORP /DE/ UTX CHENEVERT LOUIS director officer (Chairman & CEO) 654 $83.99 $54,929.50 405,671 3.70% view
S 2011-02-22 2011-02-23 17:30:19.0 UNITED TECHNOLOGIES CORP /DE/ UTX CHENEVERT LOUIS director officer (Chairman & CEO) 400 $84.00 $33,600.00 406,325 3.71% view
S 2011-02-22 2011-02-23 17:30:19.0 UNITED TECHNOLOGIES CORP /DE/ UTX CHENEVERT LOUIS director officer (Chairman & CEO) 400 $84.01 $33,604.00 406,725 3.73% view
S 2011-02-14 2011-02-15 17:08:05.0 UNITED TECHNOLOGIES CORP /DE/ UTX Bowler J Thomas JR officer (SVP, Human Resources and Org.) 4,000 $85.02 $340,084.00 21,326 5.04% view
S 2011-02-14 2011-02-15 17:08:05.0 UNITED TECHNOLOGIES CORP /DE/ UTX Bowler J Thomas JR officer (SVP, Human Resources and Org.) 3,669 $85.00 $311,865.00 25,326 5.01% view
S 2011-02-14 2011-02-15 17:08:05.0 UNITED TECHNOLOGIES CORP /DE/ UTX Bowler J Thomas JR officer (SVP, Human Resources and Org.) 2,825 $85.01 $240,153.00 28,995 5.02% view
S 2011-02-14 2011-02-15 17:08:05.0 UNITED TECHNOLOGIES CORP /DE/ UTX Bowler J Thomas JR officer (SVP, Human Resources and Org.) 2,400 $85.02 $204,048.00 31,820 5.03% view
S 2011-02-14 2011-02-15 17:08:05.0 UNITED TECHNOLOGIES CORP /DE/ UTX Bowler J Thomas JR officer (SVP, Human Resources and Org.) 1,206 $85.03 $102,546.00 34,220 5.05% view
S 2011-02-14 2011-02-15 17:08:05.0 UNITED TECHNOLOGIES CORP /DE/ UTX Bowler J Thomas JR officer (SVP, Human Resources and Org.) 100 $85.00 $8,500.05 35,426 5.01% view
S 2011-02-14 2011-02-15 17:08:05.0 UNITED TECHNOLOGIES CORP /DE/ UTX Bowler J Thomas JR officer (SVP, Human Resources and Org.) 100 $85.00 $8,500.12 35,526 5.01% view
S 2011-02-14 2011-02-15 17:08:05.0 UNITED TECHNOLOGIES CORP /DE/ UTX Bowler J Thomas JR officer (SVP, Human Resources and Org.) 100 $85.00 $8,500.15 35,626 5.01% view
S 2011-02-14 2011-02-15 17:08:05.0 UNITED TECHNOLOGIES CORP /DE/ UTX Bowler J Thomas JR officer (SVP, Human Resources and Org.) 100 $85.00 $8,500.25 35,726 5.01% view
S 2011-02-14 2011-02-15 17:08:05.0 UNITED TECHNOLOGIES CORP /DE/ UTX Bowler J Thomas JR officer (SVP, Human Resources and Org.) 100 $85.01 $8,501.12 35,826 5.02% view
S 2011-02-14 2011-02-15 17:08:05.0 UNITED TECHNOLOGIES CORP /DE/ UTX Bowler J Thomas JR officer (SVP, Human Resources and Org.) 100 $85.01 $8,501.15 35,926 5.02% view
S 2011-02-14 2011-02-15 17:08:05.0 UNITED TECHNOLOGIES CORP /DE/ UTX Bowler J Thomas JR officer (SVP, Human Resources and Org.) 100 $85.01 $8,501.19 36,026 5.03% view
S 2011-02-14 2011-02-15 17:08:05.0 UNITED TECHNOLOGIES CORP /DE/ UTX Bowler J Thomas JR officer (SVP, Human Resources and Org.) 100 $85.02 $8,502.08 36,126 5.04% view
S 2011-02-14 2011-02-15 17:08:05.0 UNITED TECHNOLOGIES CORP /DE/ UTX Bowler J Thomas JR officer (SVP, Human Resources and Org.) 100 $85.02 $8,502.09 36,226 5.04% view
S 2011-02-10 2011-02-11 17:10:56.0 UNITED TECHNOLOGIES CORP /DE/ UTX Pino Jeffrey P officer (President, Sikorsky Aircraft) 46,855 $84.55 $3,961,590.00 22,745 4.29% view
S 2011-02-10 2011-02-11 17:10:56.0 UNITED TECHNOLOGIES CORP /DE/ UTX Pino Jeffrey P officer (President, Sikorsky Aircraft) 145 $84.76 $12,290.20 69,600 4.53% view
S 2011-02-08 2011-02-09 17:56:12.0 UNITED TECHNOLOGIES CORP /DE/ UTX BELLEMARE ALAIN officer (President, Hamilton Sundstrand) 2,300 $83.74 $192,602.00 28,683 0.57% view
S 2011-02-08 2011-02-09 17:56:12.0 UNITED TECHNOLOGIES CORP /DE/ UTX BELLEMARE ALAIN officer (President, Hamilton Sundstrand) 2,000 $83.73 $167,462.00 30,983 0.56% view
S 2011-02-08 2011-02-09 17:56:12.0 UNITED TECHNOLOGIES CORP /DE/ UTX BELLEMARE ALAIN officer (President, Hamilton Sundstrand) 1,900 $83.71 $159,049.00 32,983 0.54% view
S 2011-02-08 2011-02-09 17:56:12.0 UNITED TECHNOLOGIES CORP /DE/ UTX BELLEMARE ALAIN officer (President, Hamilton Sundstrand) 1,900 $83.73 $159,087.00 34,883 0.56% view
S 2011-02-08 2011-02-09 17:56:12.0 UNITED TECHNOLOGIES CORP /DE/ UTX BELLEMARE ALAIN officer (President, Hamilton Sundstrand) 1,700 $83.74 $142,360.00 36,783 0.57% view
S 2011-02-08 2011-02-09 17:56:12.0 UNITED TECHNOLOGIES CORP /DE/ UTX BELLEMARE ALAIN officer (President, Hamilton Sundstrand) 1,012 $83.71 $84,715.50 38,483 0.54% view
S 2011-02-08 2011-02-09 17:56:12.0 UNITED TECHNOLOGIES CORP /DE/ UTX BELLEMARE ALAIN officer (President, Hamilton Sundstrand) 700 $83.72 $58,604.00 39,495 0.55% view
S 2011-02-08 2011-02-09 17:56:12.0 UNITED TECHNOLOGIES CORP /DE/ UTX BELLEMARE ALAIN officer (President, Hamilton Sundstrand) 200 $83.72 $16,744.20 40,195 0.55% view
S 2011-02-08 2011-02-09 17:56:12.0 UNITED TECHNOLOGIES CORP /DE/ UTX BELLEMARE ALAIN officer (President, Hamilton Sundstrand) 100 $83.71 $8,371.24 40,395 0.54% view
S 2011-02-08 2011-02-09 17:56:12.0 UNITED TECHNOLOGIES CORP /DE/ UTX BELLEMARE ALAIN officer (President, Hamilton Sundstrand) 100 $83.73 $8,373.18 40,495 0.56% view
S 2011-02-08 2011-02-09 17:56:12.0 UNITED TECHNOLOGIES CORP /DE/ UTX BELLEMARE ALAIN officer (President, Hamilton Sundstrand) 88 $83.71 $7,366.52 40,595 0.54% view
S 2011-02-03 2011-02-04 17:35:46.0 UNITED TECHNOLOGIES CORP /DE/ UTX ROGAN THOMAS I officer (Vice President, Treasurer) 8,000 $82.00 $656,000.00 17,910 -2.26% view
S 2011-02-03 2011-02-04 17:35:46.0 UNITED TECHNOLOGIES CORP /DE/ UTX ROGAN THOMAS I officer (Vice President, Treasurer) 4,331 $81.90 $354,709.00 25,910 -2.38% view
S 2011-02-03 2011-02-04 17:35:46.0 UNITED TECHNOLOGIES CORP /DE/ UTX ROGAN THOMAS I officer (Vice President, Treasurer) 1,500 $81.98 $122,970.00 30,241 -2.28% view
S 2011-02-03 2011-02-04 17:35:46.0 UNITED TECHNOLOGIES CORP /DE/ UTX ROGAN THOMAS I officer (Vice President, Treasurer) 1,300 $81.97 $106,562.00 31,741 -2.29% view
S 2011-02-03 2011-02-04 17:35:46.0 UNITED TECHNOLOGIES CORP /DE/ UTX ROGAN THOMAS I officer (Vice President, Treasurer) 800 $81.97 $65,576.00 33,041 -2.29% view
S 2011-02-03 2011-02-04 17:35:46.0 UNITED TECHNOLOGIES CORP /DE/ UTX ROGAN THOMAS I officer (Vice President, Treasurer) 300 $82.01 $24,603.00 33,841 -2.24% view
S 2011-02-03 2011-02-04 17:35:46.0 UNITED TECHNOLOGIES CORP /DE/ UTX ROGAN THOMAS I officer (Vice President, Treasurer) 100 $81.99 $8,199.00 34,141 -2.27% view
S 2011-01-27 2011-01-28 17:13:53.0 UNITED TECHNOLOGIES CORP /DE/ UTX Michaud-Daniel Didier officer (President, Otis Elevator) 16,233 $82.29 $1,335,810.00 9,875 -1.31% view
S 2011-01-27 2011-01-28 17:13:53.0 UNITED TECHNOLOGIES CORP /DE/ UTX Michaud-Daniel Didier officer (President, Otis Elevator) 4,600 $82.27 $378,442.00 26,108 -1.34% view
S 2011-01-27 2011-01-28 17:13:53.0 UNITED TECHNOLOGIES CORP /DE/ UTX Michaud-Daniel Didier officer (President, Otis Elevator) 4,109 $82.26 $338,006.00 30,708 -1.35% view
S 2011-01-27 2011-01-28 17:13:53.0 UNITED TECHNOLOGIES CORP /DE/ UTX Michaud-Daniel Didier officer (President, Otis Elevator) 958 $82.30 $78,843.40 34,817 -1.30% view
S 2011-01-27 2011-01-28 17:13:53.0 UNITED TECHNOLOGIES CORP /DE/ UTX Michaud-Daniel Didier officer (President, Otis Elevator) 400 $82.31 $32,924.00 35,775 -1.29% view
S 2011-01-27 2011-01-28 17:13:53.0 UNITED TECHNOLOGIES CORP /DE/ UTX Michaud-Daniel Didier officer (President, Otis Elevator) 300 $82.32 $24,696.00 36,175 -1.28% view
S 2011-01-27 2011-01-28 17:13:53.0 UNITED TECHNOLOGIES CORP /DE/ UTX Pino Jeffrey P officer (President, Sikorsky Aircraft) 850 $82.50 $70,125.00 15,215 -1.05% view
S 2010-12-31 2011-01-04 17:10:22.0 UNITED TECHNOLOGIES CORP /DE/ UTX Bowler J Thomas JR officer (SVP, Human Resources and Org.) 3,000 $78.59 $235,758.00 15,683 -3.45% view
S 2010-12-31 2011-01-04 17:10:22.0 UNITED TECHNOLOGIES CORP /DE/ UTX Bowler J Thomas JR officer (SVP, Human Resources and Org.) 3,000 $78.62 $235,860.00 18,683 -3.41% view
S 2010-12-31 2011-01-04 17:10:22.0 UNITED TECHNOLOGIES CORP /DE/ UTX Bowler J Thomas JR officer (SVP, Human Resources and Org.) 3,000 $78.62 $235,864.00 21,683 -3.41% view
S 2010-12-31 2011-01-04 17:10:22.0 UNITED TECHNOLOGIES CORP /DE/ UTX Bowler J Thomas JR officer (SVP, Human Resources and Org.) 3,000 $78.62 $235,866.00 24,683 -3.41% view
S 2010-12-31 2011-01-04 17:10:22.0 UNITED TECHNOLOGIES CORP /DE/ UTX Bowler J Thomas JR officer (SVP, Human Resources and Org.) 3,000 $78.63 $235,880.00 27,683 -3.40% view
S 2010-12-31 2011-01-04 17:10:22.0 UNITED TECHNOLOGIES CORP /DE/ UTX Bowler J Thomas JR officer (SVP, Human Resources and Org.) 3,000 $78.64 $235,914.00 30,683 -3.39% view
S 2010-12-31 2011-01-04 17:10:22.0 UNITED TECHNOLOGIES CORP /DE/ UTX Bowler J Thomas JR officer (SVP, Human Resources and Org.) 3,000 $78.64 $235,920.00 33,683 -3.38% view
S 2010-12-31 2011-01-04 17:10:22.0 UNITED TECHNOLOGIES CORP /DE/ UTX Bowler J Thomas JR officer (SVP, Human Resources and Org.) 3,000 $78.64 $235,920.00 36,683 -3.38% view
S 2010-12-31 2011-01-04 17:10:22.0 UNITED TECHNOLOGIES CORP /DE/ UTX Bowler J Thomas JR officer (SVP, Human Resources and Org.) 3,000 $78.67 $236,013.00 39,683 -3.34% view
S 2010-12-31 2011-01-04 17:10:22.0 UNITED TECHNOLOGIES CORP /DE/ UTX Bowler J Thomas JR officer (SVP, Human Resources and Org.) 3,000 $78.67 $236,014.00 42,683 -3.34% view
S 2010-12-31 2011-01-04 17:10:22.0 UNITED TECHNOLOGIES CORP /DE/ UTX Bowler J Thomas JR officer (SVP, Human Resources and Org.) 3,000 $78.70 $236,100.00 45,683 -3.30% view
S 2010-12-31 2011-01-04 17:10:22.0 UNITED TECHNOLOGIES CORP /DE/ UTX Bowler J Thomas JR officer (SVP, Human Resources and Org.) 3,000 $78.70 $236,102.00 48,683 -3.30% view
S 2010-12-15 2010-12-16 17:24:26.0 UNITED TECHNOLOGIES CORP /DE/ UTX BELLEMARE ALAIN officer (President, Hamilton Sundstrand) 3,500 $79.13 $276,962.00 20,771 0.07% view
S 2010-12-15 2010-12-15 18:15:43.0 UNITED TECHNOLOGIES CORP /DE/ UTX DARNIS GERAUD officer (President, Carrier Corporation) 10,000 $78.85 $788,500.00 96,466 -0.29% view
S 2010-12-15 2010-12-15 18:15:43.0 UNITED TECHNOLOGIES CORP /DE/ UTX DARNIS GERAUD officer (President, Carrier Corporation) 10,000 $78.95 $789,500.00 106,466 -0.16% view
S 2010-12-15 2010-12-15 18:15:43.0 UNITED TECHNOLOGIES CORP /DE/ UTX DARNIS GERAUD officer (President, Carrier Corporation) 6,916 $78.90 $545,672.00 116,466 -0.23% view
S 2010-12-15 2010-12-15 18:15:43.0 UNITED TECHNOLOGIES CORP /DE/ UTX DARNIS GERAUD officer (President, Carrier Corporation) 6,600 $78.90 $520,747.00 123,382 -0.23% view
S 2010-12-15 2010-12-15 18:15:43.0 UNITED TECHNOLOGIES CORP /DE/ UTX DARNIS GERAUD officer (President, Carrier Corporation) 200 $78.91 $15,782.00 129,982 -0.22% view
S 2010-12-02 2010-12-03 17:31:33.0 UNITED TECHNOLOGIES CORP /DE/ UTX MCCORMICK RICHARD D director 2,900 $78.84 $228,639.00 39,788 0.15% view
S 2010-12-02 2010-12-03 17:31:33.0 UNITED TECHNOLOGIES CORP /DE/ UTX MCCORMICK RICHARD D director 1,676 $78.84 $132,139.00 42,688 0.15% view
S 2010-12-02 2010-12-03 17:31:33.0 UNITED TECHNOLOGIES CORP /DE/ UTX MCCORMICK RICHARD D director 100 $78.84 $7,884.05 44,364 0.15% view
S 2010-12-02 2010-12-03 17:31:33.0 UNITED TECHNOLOGIES CORP /DE/ UTX MCCORMICK RICHARD D director 100 $78.84 $7,884.11 44,464 0.15% view
S 2010-12-02 2010-12-03 17:31:33.0 UNITED TECHNOLOGIES CORP /DE/ UTX MCCORMICK RICHARD D director 100 $78.84 $7,884.24 44,564 0.16% view
S 2010-12-03 2010-12-03 17:30:17.0 UNITED TECHNOLOGIES CORP /DE/ UTX CHENEVERT LOUIS director officer (Chairman & CEO) 5,000 $78.36 $391,783.00 310,576 -0.81% view
S 2010-12-03 2010-12-03 17:30:17.0 UNITED TECHNOLOGIES CORP /DE/ UTX CHENEVERT LOUIS director officer (Chairman & CEO) 5,000 $78.39 $391,962.00 315,576 -0.76% view
S 2010-12-03 2010-12-03 17:30:17.0 UNITED TECHNOLOGIES CORP /DE/ UTX CHENEVERT LOUIS director officer (Chairman & CEO) 2,500 $78.60 $196,500.00 320,576 -0.50% view
S 2010-12-03 2010-12-03 17:30:17.0 UNITED TECHNOLOGIES CORP /DE/ UTX CHENEVERT LOUIS director officer (Chairman & CEO) 2,500 $78.65 $196,625.00 323,076 -0.43% view
S 2010-12-03 2010-12-03 17:30:17.0 UNITED TECHNOLOGIES CORP /DE/ UTX CHENEVERT LOUIS director officer (Chairman & CEO) 2,000 $78.60 $157,208.00 325,576 -0.49% view
S 2010-12-03 2010-12-03 17:30:17.0 UNITED TECHNOLOGIES CORP /DE/ UTX CHENEVERT LOUIS director officer (Chairman & CEO) 1,600 $78.50 $125,600.00 327,576 -0.62% view
S 2010-12-03 2010-12-03 17:30:17.0 UNITED TECHNOLOGIES CORP /DE/ UTX CHENEVERT LOUIS director officer (Chairman & CEO) 400 $78.55 $31,421.00 329,176 -0.56% view
S 2010-12-02 2010-12-02 18:14:33.0 UNITED TECHNOLOGIES CORP /DE/ UTX ROGAN THOMAS I officer (Vice President, Treasurer) 5,000 $79.19 $395,950.00 17,910 0.59% view
S 2010-12-02 2010-12-02 18:14:33.0 UNITED TECHNOLOGIES CORP /DE/ UTX ROGAN THOMAS I officer (Vice President, Treasurer) 4,474 $79.10 $353,893.00 22,910 0.48% view
S 2010-12-02 2010-12-02 18:14:33.0 UNITED TECHNOLOGIES CORP /DE/ UTX ROGAN THOMAS I officer (Vice President, Treasurer) 2,600 $79.17 $205,845.00 27,384 0.57% view
S 2010-12-02 2010-12-02 18:14:33.0 UNITED TECHNOLOGIES CORP /DE/ UTX ROGAN THOMAS I officer (Vice President, Treasurer) 1,594 $79.16 $126,183.00 29,984 0.56% view
S 2010-12-02 2010-12-02 18:14:33.0 UNITED TECHNOLOGIES CORP /DE/ UTX ROGAN THOMAS I officer (Vice President, Treasurer) 506 $79.17 $40,060.00 31,578 0.57% view
S 2010-12-02 2010-12-02 18:14:33.0 UNITED TECHNOLOGIES CORP /DE/ UTX ROGAN THOMAS I officer (Vice President, Treasurer) 100 $79.17 $7,917.08 32,084 0.57% view
S 2010-12-02 2010-12-02 18:14:33.0 UNITED TECHNOLOGIES CORP /DE/ UTX ROGAN THOMAS I officer (Vice President, Treasurer) 100 $79.17 $7,917.11 32,184 0.57% view
S 2010-12-02 2010-12-02 18:14:33.0 UNITED TECHNOLOGIES CORP /DE/ UTX ROGAN THOMAS I officer (Vice President, Treasurer) 100 $79.17 $7,917.25 32,284 0.57% view
S 2010-12-01 2010-12-02 18:06:33.0 UNITED TECHNOLOGIES CORP /DE/ UTX Bowler J Thomas JR officer (SVP, Human Resources and Org.) 18,000 $77.54 $1,395,740.00 15,683 -1.52% view
S 2010-12-01 2010-12-02 18:06:33.0 UNITED TECHNOLOGIES CORP /DE/ UTX Bowler J Thomas JR officer (SVP, Human Resources and Org.) 9,613 $77.65 $746,449.00 33,683 -1.38% view
S 2010-12-01 2010-12-02 18:06:33.0 UNITED TECHNOLOGIES CORP /DE/ UTX Bowler J Thomas JR officer (SVP, Human Resources and Org.) 8,387 $77.52 $650,195.00 43,296 -1.54% view
S 2010-11-11 2010-11-12 17:07:52.0 UNITED TECHNOLOGIES CORP /DE/ UTX Hess David P officer (President, Pratt & Whitney) 12,343 $75.20 $928,194.00 108,879 -4.26% view
S 2010-11-11 2010-11-12 17:07:52.0 UNITED TECHNOLOGIES CORP /DE/ UTX Hess David P officer (President, Pratt & Whitney) 6,000 $75.25 $451,500.00 121,222 -4.19% view
S 2010-11-11 2010-11-12 17:07:52.0 UNITED TECHNOLOGIES CORP /DE/ UTX Hess David P officer (President, Pratt & Whitney) 5,100 $75.26 $383,826.00 127,222 -4.17% view
S 2010-11-11 2010-11-12 17:07:52.0 UNITED TECHNOLOGIES CORP /DE/ UTX Hess David P officer (President, Pratt & Whitney) 700 $75.21 $52,647.00 132,322 -4.24% view
S 2010-11-11 2010-11-12 17:07:52.0 UNITED TECHNOLOGIES CORP /DE/ UTX Hess David P officer (President, Pratt & Whitney) 300 $75.21 $22,561.50 133,022 -4.25% view
S 2010-11-09 2010-11-10 17:10:44.0 UNITED TECHNOLOGIES CORP /DE/ UTX Brown William M officer (President, UTC Fire & Security) 14,000 $76.49 $1,070,860.00 18,625 -1.49% view
S 2010-11-09 2010-11-10 17:10:44.0 UNITED TECHNOLOGIES CORP /DE/ UTX Brown William M officer (President, UTC Fire & Security) 10,000 $76.51 $765,100.00 32,625 -1.46% view
S 2010-11-09 2010-11-10 17:10:44.0 UNITED TECHNOLOGIES CORP /DE/ UTX Brown William M officer (President, UTC Fire & Security) 9,934 $76.53 $760,249.00 42,625 -1.44% view
S 2010-11-09 2010-11-10 17:10:44.0 UNITED TECHNOLOGIES CORP /DE/ UTX Brown William M officer (President, UTC Fire & Security) 5,211 $76.53 $398,803.00 52,559 -1.44% view
S 2010-11-09 2010-11-10 17:10:44.0 UNITED TECHNOLOGIES CORP /DE/ UTX Brown William M officer (President, UTC Fire & Security) 4,466 $76.52 $341,738.00 57,770 -1.45% view
S 2010-11-09 2010-11-10 17:10:44.0 UNITED TECHNOLOGIES CORP /DE/ UTX Brown William M officer (President, UTC Fire & Security) 200 $76.53 $15,306.00 62,236 -1.44% view
S 2010-11-09 2010-11-10 17:10:44.0 UNITED TECHNOLOGIES CORP /DE/ UTX Brown William M officer (President, UTC Fire & Security) 100 $76.53 $7,653.04 62,436 -1.44% view
S 2010-11-09 2010-11-10 17:10:44.0 UNITED TECHNOLOGIES CORP /DE/ UTX Brown William M officer (President, UTC Fire & Security) 89 $76.53 $6,811.22 62,536 -1.44% view
S 2010-11-09 2010-11-10 17:10:40.0 UNITED TECHNOLOGIES CORP /DE/ UTX SWYGERT H PATRICK director 12,800 $76.50 $979,200.00 1,000 -1.48% view
S 2010-11-09 2010-11-10 17:10:40.0 UNITED TECHNOLOGIES CORP /DE/ UTX SWYGERT H PATRICK director 100 $76.50 $7,650.01 13,800 -1.48% view
S 2010-11-09 2010-11-10 17:10:40.0 UNITED TECHNOLOGIES CORP /DE/ UTX SWYGERT H PATRICK director 100 $76.50 $7,650.04 13,900 -1.48% view
S 2010-11-05 2010-11-09 17:21:17.0 UNITED TECHNOLOGIES CORP /DE/ UTX CHENEVERT LOUIS director officer (Chairman & CEO) 10,785 $76.50 $825,052.00 367,632 -2.93% view
S 2010-11-05 2010-11-09 17:21:17.0 UNITED TECHNOLOGIES CORP /DE/ UTX CHENEVERT LOUIS director officer (Chairman & CEO) 6,115 $76.38 $467,094.00 378,417 -3.08% view
S 2010-10-28 2010-10-29 17:11:50.0 UNITED TECHNOLOGIES CORP /DE/ UTX BELLEMARE ALAIN officer (President, Hamilton Sundstrand) 5,000 $75.00 $375,000.00 24,271 -0.37% view
S 2010-10-21 2010-10-25 17:21:18.0 UNITED TECHNOLOGIES CORP /DE/ UTX Brown William M officer (President, UTC Fire & Security) 25,000 $75.25 $1,881,250.00 18,625 -0.08% view
S 2010-10-21 2010-10-25 17:21:18.0 UNITED TECHNOLOGIES CORP /DE/ UTX Brown William M officer (President, UTC Fire & Security) 12,900 $74.96 $966,984.00 43,625 -0.47% view
S 2010-10-21 2010-10-25 17:21:18.0 UNITED TECHNOLOGIES CORP /DE/ UTX Brown William M officer (President, UTC Fire & Security) 10,634 $75.05 $798,082.00 56,525 -0.35% view
S 2010-10-21 2010-10-25 17:21:18.0 UNITED TECHNOLOGIES CORP /DE/ UTX Brown William M officer (President, UTC Fire & Security) 10,000 $74.98 $749,800.00 67,159 -0.44% view
S 2010-10-21 2010-10-25 17:21:18.0 UNITED TECHNOLOGIES CORP /DE/ UTX Brown William M officer (President, UTC Fire & Security) 10,000 $74.99 $749,900.00 77,159 -0.43% view
S 2010-10-21 2010-10-25 17:21:18.0 UNITED TECHNOLOGIES CORP /DE/ UTX Brown William M officer (President, UTC Fire & Security) 10,000 $75.00 $750,000.00 87,159 -0.41% view
S 2010-10-21 2010-10-25 17:21:18.0 UNITED TECHNOLOGIES CORP /DE/ UTX Brown William M officer (President, UTC Fire & Security) 6,500 $74.95 $487,175.00 97,159 -0.48% view
S 2010-10-21 2010-10-25 17:21:18.0 UNITED TECHNOLOGIES CORP /DE/ UTX Brown William M officer (President, UTC Fire & Security) 4,400 $75.06 $330,264.00 103,659 -0.33% view
S 2010-10-21 2010-10-25 17:21:18.0 UNITED TECHNOLOGIES CORP /DE/ UTX Brown William M officer (President, UTC Fire & Security) 4,400 $75.06 $330,268.00 108,059 -0.33% view
S 2010-10-21 2010-10-25 17:21:18.0 UNITED TECHNOLOGIES CORP /DE/ UTX Brown William M officer (President, UTC Fire & Security) 2,400 $75.05 $180,122.00 112,459 -0.35% view
S 2010-10-21 2010-10-25 17:21:18.0 UNITED TECHNOLOGIES CORP /DE/ UTX Brown William M officer (President, UTC Fire & Security) 1,166 $75.07 $87,531.60 114,859 -0.32% view
S 2010-10-21 2010-10-25 17:21:18.0 UNITED TECHNOLOGIES CORP /DE/ UTX Brown William M officer (President, UTC Fire & Security) 1,000 $75.08 $75,080.00 116,025 -0.31% view
S 2010-10-21 2010-10-25 17:21:18.0 UNITED TECHNOLOGIES CORP /DE/ UTX Brown William M officer (President, UTC Fire & Security) 800 $75.08 $60,064.80 117,025 -0.31% view
S 2010-10-21 2010-10-25 17:21:18.0 UNITED TECHNOLOGIES CORP /DE/ UTX Brown William M officer (President, UTC Fire & Security) 600 $74.96 $44,979.00 117,825 -0.46% view
S 2010-10-21 2010-10-25 17:21:18.0 UNITED TECHNOLOGIES CORP /DE/ UTX Brown William M officer (President, UTC Fire & Security) 100 $75.06 $7,506.02 118,425 -0.33% view
S 2010-10-21 2010-10-25 17:21:18.0 UNITED TECHNOLOGIES CORP /DE/ UTX Brown William M officer (President, UTC Fire & Security) 100 $75.07 $7,507.50 118,525 -0.31% view
S 2010-09-14 2010-09-15 17:36:57.0 UNITED TECHNOLOGIES CORP /DE/ UTX SWYGERT H PATRICK director 12,300 $68.85 $846,855.00 1,000 -7.70% view
S 2010-09-14 2010-09-15 17:36:57.0 UNITED TECHNOLOGIES CORP /DE/ UTX SWYGERT H PATRICK director 700 $68.85 $48,195.70 13,300 -7.70% view
S 2010-07-26 2010-07-27 17:20:05.0 UNITED TECHNOLOGIES CORP /DE/ UTX Pino Jeffrey P officer (President, Sikorsky Aircraft) 500 $71.53 $35,766.10 16,065 9.06% view
S 2010-07-26 2010-07-27 17:20:05.0 UNITED TECHNOLOGIES CORP /DE/ UTX Pino Jeffrey P officer (President, Sikorsky Aircraft) 201 $71.53 $14,377.70 16,565 9.06% view
S 2010-07-26 2010-07-27 17:20:05.0 UNITED TECHNOLOGIES CORP /DE/ UTX GORELICK JAMIE S director 4,200 $71.68 $301,073.00 3,621 9.25% view
S 2010-07-26 2010-07-27 17:20:05.0 UNITED TECHNOLOGIES CORP /DE/ UTX GORELICK JAMIE S director 1,700 $71.70 $121,892.00 7,821 9.28% view
S 2010-07-26 2010-07-27 17:20:05.0 UNITED TECHNOLOGIES CORP /DE/ UTX GORELICK JAMIE S director 1,254 $71.69 $89,901.80 9,521 9.26% view
S 2010-07-26 2010-07-27 17:20:05.0 UNITED TECHNOLOGIES CORP /DE/ UTX GORELICK JAMIE S director 946 $71.68 $67,811.20 10,775 9.25% view
S 2010-07-26 2010-07-27 17:20:05.0 UNITED TECHNOLOGIES CORP /DE/ UTX GORELICK JAMIE S director 500 $71.70 $35,851.00 11,721 9.28% view
S 2010-07-26 2010-07-27 17:20:05.0 UNITED TECHNOLOGIES CORP /DE/ UTX GORELICK JAMIE S director 100 $71.10 $7,110.11 12,221 8.51% view
S 2010-07-26 2010-07-27 17:20:05.0 UNITED TECHNOLOGIES CORP /DE/ UTX ROGAN THOMAS I officer (Vice President, Treasurer) 7,522 $71.55 $538,203.00 17,910 9.09% view
S 2010-04-22 2010-04-26 17:06:38.0 UNITED TECHNOLOGIES CORP /DE/ UTX Michaud-Daniel Didier officer (President, Otis Elevator) 22,000 $76.50 $1,683,000.00 9,875 13.15% view
S 2010-04-22 2010-04-26 17:06:32.0 UNITED TECHNOLOGIES CORP /DE/ UTX Brown William M officer (President, UTC Fire & Security) 22,200 $76.30 $1,693,860.00 18,625 12.92% view
S 2010-04-22 2010-04-23 16:53:07.0 UNITED TECHNOLOGIES CORP /DE/ UTX DARNIS GERAUD officer (President, Carrier Corporation) 70,119 $76.34 $5,352,680.00 96,466 12.96% view
S 2010-03-25 2010-03-26 17:10:36.0 UNITED TECHNOLOGIES CORP /DE/ UTX BOUSBIB ARI officer (Pres., Commercial & UTC EVP) 30,000 $73.75 $2,212,500.00 69,365 -3.69% view
S 2010-03-25 2010-03-26 17:10:36.0 UNITED TECHNOLOGIES CORP /DE/ UTX BOUSBIB ARI officer (Pres., Commercial & UTC EVP) 15,000 $73.76 $1,106,400.00 99,365 -3.67% view
S 2010-03-25 2010-03-26 17:10:36.0 UNITED TECHNOLOGIES CORP /DE/ UTX BOUSBIB ARI officer (Pres., Commercial & UTC EVP) 15,000 $73.79 $1,106,850.00 114,365 -3.63% view
S 2010-03-25 2010-03-26 17:10:36.0 UNITED TECHNOLOGIES CORP /DE/ UTX BOUSBIB ARI officer (Pres., Commercial & UTC EVP) 9,400 $73.80 $693,720.00 129,365 -3.62% view
S 2010-03-25 2010-03-26 17:10:36.0 UNITED TECHNOLOGIES CORP /DE/ UTX BOUSBIB ARI officer (Pres., Commercial & UTC EVP) 5,600 $73.80 $413,286.00 138,765 -3.62% view
S 2010-03-22 2010-03-23 17:03:25.0 UNITED TECHNOLOGIES CORP /DE/ UTX CHENEVERT LOUIS director officer (Chairman & CEO) 5,049 $72.68 $366,961.00 272,311 -5.16% view
S 2010-03-22 2010-03-23 17:03:25.0 UNITED TECHNOLOGIES CORP /DE/ UTX CHENEVERT LOUIS director officer (Chairman & CEO) 4,300 $72.90 $313,470.00 277,360 -4.84% view
S 2010-03-22 2010-03-23 17:03:25.0 UNITED TECHNOLOGIES CORP /DE/ UTX CHENEVERT LOUIS director officer (Chairman & CEO) 2,100 $72.89 $153,069.00 281,660 -4.86% view
S 2010-03-22 2010-03-23 17:03:25.0 UNITED TECHNOLOGIES CORP /DE/ UTX CHENEVERT LOUIS director officer (Chairman & CEO) 1,266 $72.91 $92,304.10 283,760 -4.83% view
S 2010-03-22 2010-03-23 17:03:25.0 UNITED TECHNOLOGIES CORP /DE/ UTX CHENEVERT LOUIS director officer (Chairman & CEO) 400 $72.92 $29,168.00 285,026 -4.81% view
S 2010-03-19 2010-03-23 17:02:36.0 UNITED TECHNOLOGIES CORP /DE/ UTX BOUSBIB ARI officer (Pres., Commercial & UTC EVP) 12,600 $73.36 $924,336.00 69,365 -0.55% view
S 2010-03-19 2010-03-23 17:02:36.0 UNITED TECHNOLOGIES CORP /DE/ UTX BOUSBIB ARI officer (Pres., Commercial & UTC EVP) 12,400 $73.50 $911,400.00 81,965 -0.35% view
S 2010-03-19 2010-03-23 17:02:36.0 UNITED TECHNOLOGIES CORP /DE/ UTX BOUSBIB ARI officer (Pres., Commercial & UTC EVP) 8,200 $73.53 $602,946.00 94,365 -0.31% view
S 2010-03-19 2010-03-23 17:02:36.0 UNITED TECHNOLOGIES CORP /DE/ UTX BOUSBIB ARI officer (Pres., Commercial & UTC EVP) 8,000 $73.35 $586,800.00 102,565 -0.56% view
S 2010-03-19 2010-03-23 17:02:36.0 UNITED TECHNOLOGIES CORP /DE/ UTX BOUSBIB ARI officer (Pres., Commercial & UTC EVP) 7,400 $73.37 $542,938.00 110,565 -0.53% view
S 2010-03-19 2010-03-23 17:02:36.0 UNITED TECHNOLOGIES CORP /DE/ UTX BOUSBIB ARI officer (Pres., Commercial & UTC EVP) 6,600 $73.46 $484,836.00 117,965 -0.41% view
S 2010-03-19 2010-03-23 17:02:36.0 UNITED TECHNOLOGIES CORP /DE/ UTX BOUSBIB ARI officer (Pres., Commercial & UTC EVP) 6,500 $73.49 $477,685.00 124,565 -0.37% view
S 2010-03-19 2010-03-23 17:02:36.0 UNITED TECHNOLOGIES CORP /DE/ UTX BOUSBIB ARI officer (Pres., Commercial & UTC EVP) 6,100 $73.45 $448,045.00 131,065 -0.42% view
S 2010-03-19 2010-03-23 17:02:36.0 UNITED TECHNOLOGIES CORP /DE/ UTX BOUSBIB ARI officer (Pres., Commercial & UTC EVP) 5,900 $73.38 $432,942.00 137,165 -0.52% view
S 2010-03-19 2010-03-23 17:02:36.0 UNITED TECHNOLOGIES CORP /DE/ UTX BOUSBIB ARI officer (Pres., Commercial & UTC EVP) 5,800 $73.54 $426,532.00 143,065 -0.30% view
S 2010-03-19 2010-03-23 17:02:36.0 UNITED TECHNOLOGIES CORP /DE/ UTX BOUSBIB ARI officer (Pres., Commercial & UTC EVP) 5,500 $73.40 $403,700.00 148,865 -0.49% view
S 2010-03-19 2010-03-23 17:02:36.0 UNITED TECHNOLOGIES CORP /DE/ UTX BOUSBIB ARI officer (Pres., Commercial & UTC EVP) 3,600 $73.34 $264,024.00 154,365 -0.57% view
S 2010-03-19 2010-03-23 17:02:36.0 UNITED TECHNOLOGIES CORP /DE/ UTX BOUSBIB ARI officer (Pres., Commercial & UTC EVP) 2,800 $73.52 $205,856.00 157,965 -0.33% view
S 2010-03-19 2010-03-23 17:02:36.0 UNITED TECHNOLOGIES CORP /DE/ UTX BOUSBIB ARI officer (Pres., Commercial & UTC EVP) 2,700 $73.48 $198,396.00 160,765 -0.38% view
S 2010-03-19 2010-03-23 17:02:36.0 UNITED TECHNOLOGIES CORP /DE/ UTX BOUSBIB ARI officer (Pres., Commercial & UTC EVP) 2,500 $73.39 $183,475.00 163,465 -0.50% view
S 2010-03-19 2010-03-23 17:02:36.0 UNITED TECHNOLOGIES CORP /DE/ UTX BOUSBIB ARI officer (Pres., Commercial & UTC EVP) 1,900 $73.57 $139,783.00 165,965 -0.26% view
S 2010-03-19 2010-03-23 17:02:36.0 UNITED TECHNOLOGIES CORP /DE/ UTX BOUSBIB ARI officer (Pres., Commercial & UTC EVP) 1,800 $73.47 $132,246.00 167,865 -0.39% view
S 2010-03-19 2010-03-23 17:02:36.0 UNITED TECHNOLOGIES CORP /DE/ UTX BOUSBIB ARI officer (Pres., Commercial & UTC EVP) 1,700 $73.44 $124,848.00 169,665 -0.44% view
S 2010-03-19 2010-03-23 17:02:36.0 UNITED TECHNOLOGIES CORP /DE/ UTX BOUSBIB ARI officer (Pres., Commercial & UTC EVP) 1,700 $73.51 $124,967.00 171,365 -0.34% view
S 2010-03-19 2010-03-23 17:02:36.0 UNITED TECHNOLOGIES CORP /DE/ UTX BOUSBIB ARI officer (Pres., Commercial & UTC EVP) 1,500 $73.55 $110,325.00 173,065 -0.29% view
S 2010-03-19 2010-03-23 17:02:36.0 UNITED TECHNOLOGIES CORP /DE/ UTX BOUSBIB ARI officer (Pres., Commercial & UTC EVP) 1,100 $73.42 $80,762.00 174,565 -0.46% view
S 2010-03-19 2010-03-23 17:02:36.0 UNITED TECHNOLOGIES CORP /DE/ UTX BOUSBIB ARI officer (Pres., Commercial & UTC EVP) 1,000 $73.41 $73,410.00 175,665 -0.48% view
S 2010-03-19 2010-03-23 17:02:36.0 UNITED TECHNOLOGIES CORP /DE/ UTX BOUSBIB ARI officer (Pres., Commercial & UTC EVP) 400 $73.58 $29,432.00 176,665 -0.24% view
S 2010-03-19 2010-03-23 17:02:36.0 UNITED TECHNOLOGIES CORP /DE/ UTX BOUSBIB ARI officer (Pres., Commercial & UTC EVP) 100 $73.43 $7,343.00 177,065 -0.45% view
S 2010-03-19 2010-03-23 17:02:36.0 UNITED TECHNOLOGIES CORP /DE/ UTX BOUSBIB ARI officer (Pres., Commercial & UTC EVP) 100 $73.50 $7,350.50 177,165 -0.35% view
S 2010-03-19 2010-03-23 17:02:36.0 UNITED TECHNOLOGIES CORP /DE/ UTX BOUSBIB ARI officer (Pres., Commercial & UTC EVP) 100 $73.56 $7,356.00 177,265 -0.27% view
S 2010-03-09 2010-03-11 17:12:11.0 UNITED TECHNOLOGIES CORP /DE/ UTX Bowler J Thomas JR officer (SVP, Human Resources and Org.) 20,000 $72.00 $1,440,000.00 15,683 -2.76% view
S 2009-12-16 2009-12-17 17:09:03.0 UNITED TECHNOLOGIES CORP /DE/ UTX BELLEMARE ALAIN officer (President, Hamilton Sundstrand) 26,400 $70.50 $1,861,200.00 23,484 -2.11% view
S 2009-12-16 2009-12-17 17:09:03.0 UNITED TECHNOLOGIES CORP /DE/ UTX CHENEVERT LOUIS director officer (President and CEO) 9,478 $70.58 $668,957.00 229,510 -2.00% view
S 2009-12-16 2009-12-17 17:06:49.0 UNITED TECHNOLOGIES CORP /DE/ UTX DAVID GEORGE AL director officer (Chairman) 12,797 $70.29 $899,501.00 1,609,060 -2.42% view
S 2009-12-16 2009-12-17 17:06:49.0 UNITED TECHNOLOGIES CORP /DE/ UTX DAVID GEORGE AL director officer (Chairman) 10,000 $70.40 $704,000.00 1,621,850 -2.26% view
S 2009-12-16 2009-12-17 17:06:49.0 UNITED TECHNOLOGIES CORP /DE/ UTX DAVID GEORGE AL director officer (Chairman) 10,000 $70.55 $705,502.00 1,631,850 -2.04% view
S 2009-12-16 2009-12-17 17:06:49.0 UNITED TECHNOLOGIES CORP /DE/ UTX DAVID GEORGE AL director officer (Chairman) 8,818 $70.26 $619,579.00 1,641,850 -2.46% view
S 2009-12-16 2009-12-17 17:06:49.0 UNITED TECHNOLOGIES CORP /DE/ UTX DAVID GEORGE AL director officer (Chairman) 7,713 $70.25 $541,838.00 1,650,670 -2.48% view
S 2009-12-16 2009-12-17 17:06:49.0 UNITED TECHNOLOGIES CORP /DE/ UTX DAVID GEORGE AL director officer (Chairman) 7,203 $70.55 $508,172.00 1,658,380 -2.04% view
S 2009-12-16 2009-12-17 17:06:49.0 UNITED TECHNOLOGIES CORP /DE/ UTX DAVID GEORGE AL director officer (Chairman) 2,287 $70.75 $161,805.00 1,665,590 -1.75% view
S 2009-12-15 2009-12-16 17:10:51.0 UNITED TECHNOLOGIES CORP /DE/ UTX Bowler J Thomas JR officer (SVP, Human Resources and Org.) 18,200 $69.75 $1,269,450.00 10,680 -3.21% view
S 2009-11-23 2009-11-24 17:21:46.0 UNITED TECHNOLOGIES CORP /DE/ UTX HAYES GREGORY officer (SVP and CFO) 7,437 $68.57 $509,955.00 18,395 -1.37% view
S 2009-11-23 2009-11-24 17:21:46.0 UNITED TECHNOLOGIES CORP /DE/ UTX HAYES GREGORY officer (SVP and CFO) 2,863 $68.58 $196,345.00 25,832 -1.36% view
S 2009-11-23 2009-11-24 17:21:46.0 UNITED TECHNOLOGIES CORP /DE/ UTX HAYES GREGORY officer (SVP and CFO) 1,100 $68.58 $75,439.10 28,695 -1.35% view
S 2009-11-23 2009-11-24 17:21:46.0 UNITED TECHNOLOGIES CORP /DE/ UTX HAYES GREGORY officer (SVP and CFO) 400 $68.57 $27,428.20 29,795 -1.37% view
S 2009-11-17 2009-11-19 17:12:51.0 UNITED TECHNOLOGIES CORP /DE/ UTX BOUSBIB ARI officer (Pres., Commercial & UTC EVP) 122,300 $69.75 $8,530,420.00 38,288 0.24% view
S 2009-11-17 2009-11-19 17:12:51.0 UNITED TECHNOLOGIES CORP /DE/ UTX BOUSBIB ARI officer (Pres., Commercial & UTC EVP) 2,700 $69.75 $188,328.00 160,588 0.25% view
S 2009-11-16 2009-11-17 17:19:39.0 UNITED TECHNOLOGIES CORP /DE/ UTX DARNIS GERAUD officer (President, Carrier Corporation) 7,656 $69.55 $532,475.00 116,602 -1.01% view
S 2009-11-16 2009-11-17 17:19:39.0 UNITED TECHNOLOGIES CORP /DE/ UTX DARNIS GERAUD officer (President, Carrier Corporation) 5,000 $69.54 $347,700.00 124,258 -1.02% view
S 2009-11-16 2009-11-17 17:19:34.0 UNITED TECHNOLOGIES CORP /DE/ UTX DAVID GEORGE AL director officer (Chairman) 6,200 $68.60 $425,320.00 1,508,510 -2.41% view
S 2009-11-16 2009-11-17 17:19:34.0 UNITED TECHNOLOGIES CORP /DE/ UTX DAVID GEORGE AL director officer (Chairman) 5,000 $68.65 $343,250.00 1,514,710 -2.33% view
S 2009-11-16 2009-11-17 17:19:34.0 UNITED TECHNOLOGIES CORP /DE/ UTX DAVID GEORGE AL director officer (Chairman) 3,013 $68.48 $206,333.00 1,519,710 -2.58% view
S 2009-11-16 2009-11-17 17:19:34.0 UNITED TECHNOLOGIES CORP /DE/ UTX DAVID GEORGE AL director officer (Chairman) 2,622 $68.63 $179,950.00 1,522,720 -2.36% view
S 2009-11-16 2009-11-17 17:19:34.0 UNITED TECHNOLOGIES CORP /DE/ UTX DAVID GEORGE AL director officer (Chairman) 2,488 $68.60 $170,679.00 1,525,340 -2.40% view
S 2009-11-16 2009-11-17 17:19:34.0 UNITED TECHNOLOGIES CORP /DE/ UTX DAVID GEORGE AL director officer (Chairman) 2,290 $68.65 $157,211.00 1,527,830 -2.33% view
S 2009-11-16 2009-11-17 17:19:34.0 UNITED TECHNOLOGIES CORP /DE/ UTX DAVID GEORGE AL director officer (Chairman) 2,200 $68.55 $150,812.00 1,530,120 -2.48% view
S 2009-11-16 2009-11-17 17:19:34.0 UNITED TECHNOLOGIES CORP /DE/ UTX DAVID GEORGE AL director officer (Chairman) 2,100 $68.55 $143,959.00 1,532,320 -2.48% view
S 2009-11-16 2009-11-17 17:19:34.0 UNITED TECHNOLOGIES CORP /DE/ UTX DAVID GEORGE AL director officer (Chairman) 1,900 $68.53 $130,209.00 1,534,420 -2.51% view
S 2009-11-16 2009-11-17 17:19:34.0 UNITED TECHNOLOGIES CORP /DE/ UTX DAVID GEORGE AL director officer (Chairman) 1,800 $68.52 $123,340.00 1,536,320 -2.52% view
S 2009-11-16 2009-11-17 17:19:34.0 UNITED TECHNOLOGIES CORP /DE/ UTX DAVID GEORGE AL director officer (Chairman) 1,450 $68.76 $99,702.00 1,539,620 -2.17% view
S 2009-11-16 2009-11-17 17:19:34.0 UNITED TECHNOLOGIES CORP /DE/ UTX DAVID GEORGE AL director officer (Chairman) 1,300 $68.48 $89,026.60 1,541,070 -2.58% view
S 2009-11-16 2009-11-17 17:19:34.0 UNITED TECHNOLOGIES CORP /DE/ UTX DAVID GEORGE AL director officer (Chairman) 1,100 $68.52 $75,373.10 1,542,370 -2.52% view
S 2009-11-16 2009-11-17 17:19:34.0 UNITED TECHNOLOGIES CORP /DE/ UTX DAVID GEORGE AL director officer (Chairman) 1,000 $68.61 $68,611.00 1,543,470 -2.39% view
S 2009-11-16 2009-11-17 17:19:34.0 UNITED TECHNOLOGIES CORP /DE/ UTX DAVID GEORGE AL director officer (Chairman) 1,000 $68.78 $68,780.00 1,544,470 -2.14% view
S 2009-11-16 2009-11-17 17:19:34.0 UNITED TECHNOLOGIES CORP /DE/ UTX DAVID GEORGE AL director officer (Chairman) 800 $68.77 $55,016.00 1,545,470 -2.15% view
S 2009-11-16 2009-11-17 17:19:34.0 UNITED TECHNOLOGIES CORP /DE/ UTX DAVID GEORGE AL director officer (Chairman) 687 $68.49 $47,052.60 1,546,270 -2.57% view
S 2009-11-16 2009-11-17 17:19:34.0 UNITED TECHNOLOGIES CORP /DE/ UTX DAVID GEORGE AL director officer (Chairman) 647 $68.75 $44,481.90 1,546,960 -2.18% view
S 2009-11-16 2009-11-17 17:19:34.0 UNITED TECHNOLOGIES CORP /DE/ UTX DAVID GEORGE AL director officer (Chairman) 400 $68.54 $27,416.40 1,547,610 -2.49% view
S 2009-11-16 2009-11-17 17:19:34.0 UNITED TECHNOLOGIES CORP /DE/ UTX DAVID GEORGE AL director officer (Chairman) 400 $68.54 $27,416.80 1,548,010 -2.49% view
S 2009-11-16 2009-11-17 17:19:34.0 UNITED TECHNOLOGIES CORP /DE/ UTX DAVID GEORGE AL director officer (Chairman) 200 $68.62 $13,724.20 1,548,410 -2.37% view
S 2009-11-16 2009-11-17 17:19:34.0 UNITED TECHNOLOGIES CORP /DE/ UTX DAVID GEORGE AL director officer (Chairman) 200 $68.64 $13,728.20 1,548,610 -2.34% view
S 2009-11-16 2009-11-17 17:19:34.0 UNITED TECHNOLOGIES CORP /DE/ UTX DAVID GEORGE AL director officer (Chairman) 100 $68.53 $6,853.20 1,548,810 -2.51% view
S 2009-11-16 2009-11-17 17:19:34.0 UNITED TECHNOLOGIES CORP /DE/ UTX DAVID GEORGE AL director officer (Chairman) 100 $68.79 $6,879.00 1,548,910 -2.12% view
S 2009-11-16 2009-11-17 17:19:28.0 UNITED TECHNOLOGIES CORP /DE/ UTX DAVID GEORGE AL director officer (Chairman) 16,800 $68.75 $1,155,000.00 1,491,710 -2.18% view
S 2009-11-16 2009-11-17 17:19:28.0 UNITED TECHNOLOGIES CORP /DE/ UTX ROGAN THOMAS I officer (Vice President, Treasurer) 5,800 $68.76 $398,808.00 13,990 -2.17% view
S 2009-11-16 2009-11-17 17:19:28.0 UNITED TECHNOLOGIES CORP /DE/ UTX ROGAN THOMAS I officer (Vice President, Treasurer) 1,800 $68.79 $123,824.00 19,790 -2.12% view
S 2009-11-16 2009-11-17 17:19:28.0 UNITED TECHNOLOGIES CORP /DE/ UTX ROGAN THOMAS I officer (Vice President, Treasurer) 1,400 $68.78 $96,292.00 21,590 -2.14% view
S 2009-11-16 2009-11-17 17:19:28.0 UNITED TECHNOLOGIES CORP /DE/ UTX ROGAN THOMAS I officer (Vice President, Treasurer) 500 $68.77 $34,385.00 22,990 -2.15% view
S 2009-11-16 2009-11-17 17:19:28.0 UNITED TECHNOLOGIES CORP /DE/ UTX ROGAN THOMAS I officer (Vice President, Treasurer) 500 $68.79 $34,395.00 23,490 -2.12% view
S 2009-09-23 2009-09-24 17:43:42.0 UNITED TECHNOLOGIES CORP /DE/ UTX Pino Jeffrey P officer (President, Sikorsky Aircraft) 10,000 $63.05 $630,502.00 9,366 -4.38% view
S 2009-09-23 2009-09-24 17:43:42.0 UNITED TECHNOLOGIES CORP /DE/ UTX Pino Jeffrey P officer (President, Sikorsky Aircraft) 5,000 $62.97 $314,850.00 19,366 -4.51% view
S 2009-09-23 2009-09-24 17:43:42.0 UNITED TECHNOLOGIES CORP /DE/ UTX Pino Jeffrey P officer (President, Sikorsky Aircraft) 5,000 $63.00 $315,000.00 24,366 -4.46% view
S 2009-09-23 2009-09-24 17:43:42.0 UNITED TECHNOLOGIES CORP /DE/ UTX Pino Jeffrey P officer (President, Sikorsky Aircraft) 5,000 $63.03 $315,150.00 29,366 -4.41% view
S 2009-09-23 2009-09-24 17:43:42.0 UNITED TECHNOLOGIES CORP /DE/ UTX Pino Jeffrey P officer (President, Sikorsky Aircraft) 3,500 $62.93 $220,256.00 34,366 -4.58% view
S 2009-09-23 2009-09-24 17:43:42.0 UNITED TECHNOLOGIES CORP /DE/ UTX Pino Jeffrey P officer (President, Sikorsky Aircraft) 1,500 $63.00 $94,500.00 37,866 -4.46% view
S 2009-09-17 2009-09-21 17:31:48.0 UNITED TECHNOLOGIES CORP /DE/ UTX VILLENEUVE ANDRE F H director 19,400 $62.25 $1,207,650.00 0 -4.24% view
S 2009-09-17 2009-09-21 17:31:38.0 UNITED TECHNOLOGIES CORP /DE/ UTX GORELICK JAMIE S director 3,200 $62.57 $200,227.00 3,907 -3.71% view
S 2009-09-17 2009-09-21 17:31:38.0 UNITED TECHNOLOGIES CORP /DE/ UTX GORELICK JAMIE S director 2,000 $62.57 $125,140.00 7,107 -3.71% view
S 2009-09-17 2009-09-21 17:31:38.0 UNITED TECHNOLOGIES CORP /DE/ UTX GORELICK JAMIE S director 500 $62.57 $31,286.00 9,107 -3.70% view
S 2009-09-14 2009-09-15 17:20:17.0 UNITED TECHNOLOGIES CORP /DE/ UTX BELLEMARE ALAIN officer (President, Hamilton Sundstrand) 2,500 $61.38 $153,450.00 23,484 -3.88% view
S 2009-09-11 2009-09-14 18:13:37.0 UNITED TECHNOLOGIES CORP /DE/ UTX DAVID GEORGE AL director officer (Chairman) 37,353 $61.75 $2,306,550.00 1,697,100 -0.68% view
S 2009-09-11 2009-09-14 18:13:37.0 UNITED TECHNOLOGIES CORP /DE/ UTX DAVID GEORGE AL director officer (Chairman) 200 $61.76 $12,352.00 1,734,450 -0.66% view
S 2009-09-10 2009-09-14 18:13:37.0 UNITED TECHNOLOGIES CORP /DE/ UTX BELLEMARE ALAIN officer (President, Hamilton Sundstrand) 3,100 $61.93 $191,989.00 25,984 -0.38% view
S 2009-09-10 2009-09-14 18:13:37.0 UNITED TECHNOLOGIES CORP /DE/ UTX BELLEMARE ALAIN officer (President, Hamilton Sundstrand) 1,800 $61.93 $111,478.00 29,084 -0.38% view
S 2009-09-10 2009-09-14 18:13:37.0 UNITED TECHNOLOGIES CORP /DE/ UTX BELLEMARE ALAIN officer (President, Hamilton Sundstrand) 100 $61.94 $6,194.10 30,884 -0.37% view
S 2009-09-01 2009-09-02 17:10:44.0 UNITED TECHNOLOGIES CORP /DE/ UTX DARNIS GERAUD officer (President, Carrier Corporation) 5,255 $60.00 $315,300.00 79,258 0.02% view
S 2009-09-01 2009-09-02 17:10:44.0 UNITED TECHNOLOGIES CORP /DE/ UTX DARNIS GERAUD officer (President, Carrier Corporation) 5,000 $60.10 $300,500.00 84,513 0.18% view
S 2009-09-01 2009-09-02 17:10:44.0 UNITED TECHNOLOGIES CORP /DE/ UTX HAYES GREGORY officer (SVP and CFO) 5,300 $59.00 $312,700.00 18,395 -1.68% view
S 2009-08-25 2009-08-27 17:09:54.0 UNITED TECHNOLOGIES CORP /DE/ UTX ROGAN THOMAS I officer (Vice President, Treasurer) 5,000 $59.90 $299,500.00 13,990 -2.74% view
S 2009-08-25 2009-08-27 17:09:54.0 UNITED TECHNOLOGIES CORP /DE/ UTX ROGAN THOMAS I officer (Vice President, Treasurer) 2,200 $59.83 $131,626.00 18,990 -2.86% view
* An * after P or S in the Buy/Sell column means the transaction was filed by the insider as open market, but it was marked as private transaction by insidercow's proprietary method
Show all 1233 records.
Enter Another Stock Symbol: